PWSweather.com
Personal Weather Stations
Station Observations
EI4HQ
Cork Harbour, CobhIE

Cork HarbourCobhIE

Lat: 51.85, Lon: -8.29

Elevation: 252

Station Type: Davis Vantage Pro2

http://www.corkharbourweather.ie

Latest ConditionsUpdated 8:39:00 PM GMT Friday, May 25, 2018
Currently Today's Max Today's Min Today's Average
Temperature 62.1°F16.7°C 74.8°F23.8°C 55.0°F12.8°C 64.0°F17.8°C
Dew Point 50.9°F10.5°C 58.3°F14.6°C 50.4°F10.2°C 53.8°F12.1°C
Winds 5.0 mph N8.0 kmh N 13.0 mph NNW20.9 kmh NNW - 8.6 mph 13.8 kmh
Wind Gusts 9.0 mph14.5 kmh 24.0 mph38.6 kmh - -
Humidity 67% 90% 44% 71%
Pressure 30.14 in1020.7 mb 30.17 in1021.7 mb 30.13 in1020.3 mb -
Hour Temp Dew Point Humidity Winds Wind Gusts Pressure Precip Precip Rate Daily Precip Total
08:39 PM 62.1°F16.7°C 50.9°F10.5°C 67% 5.0 mph N8.0 kmh N 9.0 mph14.5 kmh 30.14 in1020.7 mb 0.00 in0.0 mm 0.00 in0.0 mm 0.00 in0.0 mm
08:36 PM 62.1°F16.7°C 51.1°F10.6°C 67% 4.0 mph N6.4 kmh N 9.0 mph14.5 kmh 30.14 in1020.7 mb 0.00 in0.0 mm 0.00 in0.0 mm 0.00 in0.0 mm
08:33 PM 62.2°F16.8°C 51.1°F10.6°C 67% 4.0 mph N6.4 kmh N 9.0 mph14.5 kmh 30.14 in1020.7 mb 0.00 in0.0 mm 0.00 in0.0 mm 0.00 in0.0 mm
08:30 PM 62.2°F16.8°C 50.7°F10.4°C 66% 4.0 mph N6.4 kmh N 8.0 mph12.9 kmh 30.14 in1020.7 mb 0.00 in0.0 mm 0.00 in0.0 mm 0.00 in0.0 mm
08:27 PM 62.4°F16.9°C 50.9°F10.5°C 66% 5.0 mph N8.0 kmh N 8.0 mph12.9 kmh 30.14 in1020.7 mb 0.00 in0.0 mm 0.00 in0.0 mm 0.00 in0.0 mm
08:24 PM 62.6°F17.0°C 51.1°F10.6°C 66% 4.0 mph N6.4 kmh N 8.0 mph12.9 kmh 30.14 in1020.7 mb 0.00 in0.0 mm 0.00 in0.0 mm 0.00 in0.0 mm
08:21 PM 63.0°F17.2°C 51.1°F10.6°C 65% 4.0 mph N6.4 kmh N 8.0 mph12.9 kmh 30.14 in1020.7 mb 0.00 in0.0 mm 0.00 in0.0 mm 0.00 in0.0 mm
08:18 PM 63.3°F17.4°C 51.4°F10.8°C 65% 4.0 mph N6.4 kmh N 8.0 mph12.9 kmh 30.14 in1020.7 mb 0.00 in0.0 mm 0.00 in0.0 mm 0.00 in0.0 mm
08:15 PM 63.7°F17.6°C 51.3°F10.7°C 64% 4.0 mph N6.4 kmh N 8.0 mph12.9 kmh 30.14 in1020.7 mb 0.00 in0.0 mm 0.00 in0.0 mm 0.00 in0.0 mm
08:12 PM 64.0°F17.8°C 51.6°F10.9°C 64% 4.0 mph N6.4 kmh N 8.0 mph12.9 kmh 30.14 in1020.7 mb 0.00 in0.0 mm 0.00 in0.0 mm 0.00 in0.0 mm
08:09 PM 64.4°F18.0°C 51.4°F10.8°C 63% 5.0 mph N8.0 kmh N 9.0 mph14.5 kmh 30.14 in1020.7 mb 0.00 in0.0 mm 0.00 in0.0 mm 0.00 in0.0 mm
08:06 PM 64.8°F18.2°C 51.4°F10.8°C 62% 5.0 mph N8.0 kmh N 9.0 mph14.5 kmh 30.14 in1020.7 mb 0.00 in0.0 mm 0.00 in0.0 mm 0.00 in0.0 mm
08:03 PM 64.9°F18.3°C 51.1°F10.6°C 61% 5.0 mph N8.0 kmh N 9.0 mph14.5 kmh 30.14 in1020.7 mb 0.00 in0.0 mm 0.00 in0.0 mm 0.00 in0.0 mm
08:00 PM 65.1°F18.4°C 51.3°F10.7°C 61% 4.0 mph N6.4 kmh N 9.0 mph14.5 kmh 30.14 in1020.7 mb 0.00 in0.0 mm 0.00 in0.0 mm 0.00 in0.0 mm
07:57 PM 65.5°F18.6°C 51.3°F10.7°C 60% 4.0 mph N6.4 kmh N 9.0 mph14.5 kmh 30.14 in1020.7 mb 0.00 in0.0 mm 0.00 in0.0 mm 0.00 in0.0 mm
07:54 PM 65.7°F18.7°C 50.9°F10.5°C 59% 4.0 mph N6.4 kmh N 8.0 mph12.9 kmh 30.14 in1020.7 mb 0.00 in0.0 mm 0.00 in0.0 mm 0.00 in0.0 mm
07:51 PM 66.0°F18.9°C 51.8°F11.0°C 60% 3.0 mph N4.8 kmh N 8.0 mph12.9 kmh 30.14 in1020.7 mb 0.00 in0.0 mm 0.00 in0.0 mm 0.00 in0.0 mm
07:48 PM 66.4°F19.1°C 51.6°F10.9°C 59% 4.0 mph N6.4 kmh N 8.0 mph12.9 kmh 30.14 in1020.7 mb 0.00 in0.0 mm 0.00 in0.0 mm 0.00 in0.0 mm
07:45 PM 66.6°F19.2°C 50.9°F10.5°C 57% 4.0 mph N6.4 kmh N 9.0 mph14.5 kmh 30.14 in1020.7 mb 0.00 in0.0 mm 0.00 in0.0 mm 0.00 in0.0 mm
07:42 PM 66.7°F19.3°C 50.9°F10.5°C 57% 4.0 mph N6.4 kmh N 9.0 mph14.5 kmh 30.14 in1020.7 mb 0.00 in0.0 mm 0.00 in0.0 mm 0.00 in0.0 mm
07:39 PM 66.7°F19.3°C 51.1°F10.6°C 57% 5.0 mph N8.0 kmh N 9.0 mph14.5 kmh 30.14 in1020.7 mb 0.00 in0.0 mm 0.00 in0.0 mm 0.00 in0.0 mm
07:36 PM 66.7°F19.3°C 51.1°F10.6°C 57% 5.0 mph NNE8.0 kmh NNE 10.0 mph16.1 kmh 30.14 in1020.7 mb 0.00 in0.0 mm 0.00 in0.0 mm 0.00 in0.0 mm
07:33 PM 66.7°F19.3°C 51.4°F10.8°C 58% 5.0 mph NNE8.0 kmh NNE 10.0 mph16.1 kmh 30.14 in1020.7 mb 0.00 in0.0 mm 0.00 in0.0 mm 0.00 in0.0 mm
07:30 PM 66.6°F19.2°C 51.4°F10.8°C 58% 5.0 mph NNE8.0 kmh NNE 11.0 mph17.7 kmh 30.14 in1020.7 mb 0.00 in0.0 mm 0.00 in0.0 mm 0.00 in0.0 mm
07:27 PM 66.4°F19.1°C 51.6°F10.9°C 59% 5.0 mph NNE8.0 kmh NNE 11.0 mph17.7 kmh 30.14 in1020.7 mb 0.00 in0.0 mm 0.00 in0.0 mm 0.00 in0.0 mm
07:24 PM 66.2°F19.0°C 52.0°F11.1°C 60% 5.0 mph NNE8.0 kmh NNE 13.0 mph20.9 kmh 30.14 in1020.7 mb 0.00 in0.0 mm 0.00 in0.0 mm 0.00 in0.0 mm
07:21 PM 65.8°F18.8°C 52.5°F11.4°C 62% 6.0 mph NNE9.7 kmh NNE 13.0 mph20.9 kmh 30.14 in1020.7 mb 0.00 in0.0 mm 0.00 in0.0 mm 0.00 in0.0 mm
07:18 PM 65.5°F18.6°C 53.2°F11.8°C 65% 5.0 mph NNE8.0 kmh NNE 13.0 mph20.9 kmh 30.14 in1020.7 mb 0.00 in0.0 mm 0.00 in0.0 mm 0.00 in0.0 mm
07:15 PM 64.8°F18.2°C 53.1°F11.7°C 66% 5.0 mph NNE8.0 kmh NNE 13.0 mph20.9 kmh 30.14 in1020.7 mb 0.00 in0.0 mm 0.00 in0.0 mm 0.00 in0.0 mm
07:12 PM 63.9°F17.7°C 54.0°F12.2°C 70% 3.0 mph NE4.8 kmh NE 10.0 mph16.1 kmh 30.14 in1020.7 mb 0.00 in0.0 mm 0.00 in0.0 mm 0.00 in0.0 mm
07:09 PM 63.5°F17.5°C 54.3°F12.4°C 72% 3.0 mph NE4.8 kmh NE 7.0 mph11.3 kmh 30.14 in1020.7 mb 0.00 in0.0 mm 0.00 in0.0 mm 0.00 in0.0 mm
07:06 PM 63.3°F17.4°C 54.7°F12.6°C 73% 3.0 mph NNE4.8 kmh NNE 8.0 mph12.9 kmh 30.14 in1020.7 mb 0.00 in0.0 mm 0.00 in0.0 mm 0.00 in0.0 mm
07:03 PM 63.3°F17.4°C 54.5°F12.5°C 73% 2.0 mph NE3.2 kmh NE 8.0 mph12.9 kmh 30.14 in1020.7 mb 0.00 in0.0 mm 0.00 in0.0 mm 0.00 in0.0 mm
07:00 PM 63.1°F17.3°C 54.3°F12.4°C 73% 2.0 mph NE3.2 kmh NE 8.0 mph12.9 kmh 30.14 in1020.7 mb 0.00 in0.0 mm 0.00 in0.0 mm 0.00 in0.0 mm
06:57 PM 63.3°F17.4°C 54.7°F12.6°C 73% 1.0 mph E1.6 kmh E 8.0 mph12.9 kmh 30.14 in1020.7 mb 0.00 in0.0 mm 0.00 in0.0 mm 0.00 in0.0 mm
06:54 PM 63.5°F17.5°C 54.3°F12.4°C 72% 1.0 mph ENE1.6 kmh ENE 8.0 mph12.9 kmh 30.14 in1020.7 mb 0.00 in0.0 mm 0.00 in0.0 mm 0.00 in0.0 mm
06:51 PM 63.9°F17.7°C 54.3°F12.4°C 71% 1.0 mph NNE1.6 kmh NNE 4.0 mph6.4 kmh 30.14 in1020.7 mb 0.00 in0.0 mm 0.00 in0.0 mm 0.00 in0.0 mm
06:48 PM 64.0°F17.8°C 54.1°F12.3°C 70% 1.0 mph E1.6 kmh E 4.0 mph6.4 kmh 30.14 in1020.7 mb 0.00 in0.0 mm 0.00 in0.0 mm 0.00 in0.0 mm
06:45 PM 64.6°F18.1°C 54.1°F12.3°C 69% 2.0 mph SSE3.2 kmh SSE 6.0 mph9.7 kmh 30.14 in1020.7 mb 0.00 in0.0 mm 0.00 in0.0 mm 0.00 in0.0 mm
06:42 PM 64.9°F18.3°C 54.5°F12.5°C 69% 2.0 mph SE3.2 kmh SE 6.0 mph9.7 kmh 30.14 in1020.7 mb 0.00 in0.0 mm 0.00 in0.0 mm 0.00 in0.0 mm
06:39 PM 65.3°F18.5°C 54.5°F12.5°C 68% 4.0 mph SSE6.4 kmh SSE 7.0 mph11.3 kmh 30.14 in1020.7 mb 0.00 in0.0 mm 0.00 in0.0 mm 0.00 in0.0 mm
06:36 PM 65.8°F18.8°C 55.0°F12.8°C 68% 4.0 mph SE6.4 kmh SE 7.0 mph11.3 kmh 30.14 in1020.7 mb 0.00 in0.0 mm 0.00 in0.0 mm 0.00 in0.0 mm
06:33 PM 66.6°F19.2°C 55.2°F12.9°C 67% 4.0 mph SE6.4 kmh SE 8.0 mph12.9 kmh 30.14 in1020.7 mb 0.00 in0.0 mm 0.00 in0.0 mm 0.00 in0.0 mm
06:30 PM 66.9°F19.4°C 55.8°F13.2°C 67% 3.0 mph SE4.8 kmh SE 8.0 mph12.9 kmh 30.14 in1020.7 mb 0.00 in0.0 mm 0.00 in0.0 mm 0.00 in0.0 mm
06:27 PM 67.5°F19.7°C 55.6°F13.1°C 66% 2.0 mph SSE3.2 kmh SSE 8.0 mph12.9 kmh 30.14 in1020.7 mb 0.00 in0.0 mm 0.00 in0.0 mm 0.00 in0.0 mm
06:24 PM 67.6°F19.8°C 55.0°F12.8°C 64% 1.0 mph S1.6 kmh S 4.0 mph6.4 kmh 30.14 in1020.7 mb 0.00 in0.0 mm 0.00 in0.0 mm 0.00 in0.0 mm
06:21 PM 67.5°F19.7°C 54.9°F12.7°C 64% 1.0 mph S1.6 kmh S 4.0 mph6.4 kmh 30.14 in1020.7 mb 0.00 in0.0 mm 0.00 in0.0 mm 0.00 in0.0 mm
06:18 PM 67.5°F19.7°C 54.9°F12.7°C 64% 1.0 mph S1.6 kmh S 4.0 mph6.4 kmh 30.14 in1020.7 mb 0.00 in0.0 mm 0.00 in0.0 mm 0.00 in0.0 mm
06:15 PM 67.5°F19.7°C 55.2°F12.9°C 65% 2.0 mph S3.2 kmh S 4.0 mph6.4 kmh 30.14 in1020.7 mb 0.00 in0.0 mm 0.00 in0.0 mm 0.00 in0.0 mm
06:12 PM 67.3°F19.6°C 55.4°F13.0°C 66% 2.0 mph S3.2 kmh S 5.0 mph8.0 kmh 30.14 in1020.7 mb 0.00 in0.0 mm 0.00 in0.0 mm 0.00 in0.0 mm
06:09 PM 66.9°F19.4°C 55.8°F13.2°C 67% 3.0 mph S4.8 kmh S 5.0 mph8.0 kmh 30.14 in1020.7 mb 0.00 in0.0 mm 0.00 in0.0 mm 0.00 in0.0 mm
06:06 PM 66.7°F19.3°C 55.4°F13.0°C 67% 3.0 mph SSE4.8 kmh SSE 5.0 mph8.0 kmh 30.14 in1020.7 mb 0.00 in0.0 mm 0.00 in0.0 mm 0.00 in0.0 mm
06:03 PM 66.6°F19.2°C 55.2°F12.9°C 67% 3.0 mph SSE4.8 kmh SSE 5.0 mph8.0 kmh 30.14 in1020.7 mb 0.00 in0.0 mm 0.00 in0.0 mm 0.00 in0.0 mm
06:00 PM 66.6°F19.2°C 55.2°F12.9°C 67% 3.0 mph SSE4.8 kmh SSE 5.0 mph8.0 kmh 30.14 in1020.7 mb 0.00 in0.0 mm 0.00 in0.0 mm 0.00 in0.0 mm
05:57 PM 66.6°F19.2°C 55.6°F13.1°C 68% 3.0 mph SSE4.8 kmh SSE 5.0 mph8.0 kmh 30.14 in1020.7 mb 0.00 in0.0 mm 0.00 in0.0 mm 0.00 in0.0 mm
05:54 PM 66.6°F19.2°C 55.2°F12.9°C 67% 4.0 mph SSE6.4 kmh SSE 7.0 mph11.3 kmh 30.14 in1020.7 mb 0.00 in0.0 mm 0.00 in0.0 mm 0.00 in0.0 mm
05:51 PM 66.6°F19.2°C 55.6°F13.1°C 68% 4.0 mph SSE6.4 kmh SSE 7.0 mph11.3 kmh 30.14 in1020.7 mb 0.00 in0.0 mm 0.00 in0.0 mm 0.00 in0.0 mm
05:48 PM 66.6°F19.2°C 55.2°F12.9°C 67% 5.0 mph S8.0 kmh S 8.0 mph12.9 kmh 30.14 in1020.7 mb 0.00 in0.0 mm 0.00 in0.0 mm 0.00 in0.0 mm
05:45 PM 66.6°F19.2°C 55.6°F13.1°C 68% 5.0 mph S8.0 kmh S 8.0 mph12.9 kmh 30.14 in1020.7 mb 0.00 in0.0 mm 0.00 in0.0 mm 0.00 in0.0 mm
05:42 PM 66.4°F19.1°C 55.9°F13.3°C 69% 4.0 mph S6.4 kmh S 8.0 mph12.9 kmh 30.14 in1020.7 mb 0.00 in0.0 mm 0.00 in0.0 mm 0.00 in0.0 mm
05:39 PM 66.4°F19.1°C 55.8°F13.2°C 69% 4.0 mph S6.4 kmh S 7.0 mph11.3 kmh 30.14 in1020.7 mb 0.00 in0.0 mm 0.00 in0.0 mm 0.00 in0.0 mm
05:36 PM 66.4°F19.1°C 55.8°F13.2°C 69% 4.0 mph SSE6.4 kmh SSE 8.0 mph12.9 kmh 30.14 in1020.7 mb 0.00 in0.0 mm 0.00 in0.0 mm 0.00 in0.0 mm
05:33 PM 66.6°F19.2°C 55.2°F12.9°C 67% 5.0 mph SSE8.0 kmh SSE 8.0 mph12.9 kmh 30.14 in1020.7 mb 0.00 in0.0 mm 0.00 in0.0 mm 0.00 in0.0 mm
05:30 PM 66.9°F19.4°C 55.8°F13.2°C 67% 5.0 mph SSE8.0 kmh SSE 8.0 mph12.9 kmh 30.14 in1020.7 mb 0.00 in0.0 mm 0.00 in0.0 mm 0.00 in0.0 mm
05:27 PM 67.3°F19.6°C 56.3°F13.5°C 68% 5.0 mph SSE8.0 kmh SSE 8.0 mph12.9 kmh 30.14 in1020.7 mb 0.00 in0.0 mm 0.00 in0.0 mm 0.00 in0.0 mm
05:24 PM 67.3°F19.6°C 57.0°F13.9°C 70% 5.0 mph SSE8.0 kmh SSE 8.0 mph12.9 kmh 30.14 in1020.7 mb 0.00 in0.0 mm 0.00 in0.0 mm 0.00 in0.0 mm
05:21 PM 66.9°F19.4°C 56.8°F13.8°C 70% 5.0 mph SSE8.0 kmh SSE 8.0 mph12.9 kmh 30.14 in1020.7 mb 0.00 in0.0 mm 0.00 in0.0 mm 0.00 in0.0 mm
05:18 PM 66.7°F19.3°C 56.3°F13.5°C 69% 6.0 mph SSE9.7 kmh SSE 9.0 mph14.5 kmh 30.14 in1020.7 mb 0.00 in0.0 mm 0.00 in0.0 mm 0.00 in0.0 mm
05:15 PM 66.7°F19.3°C 56.7°F13.7°C 70% 6.0 mph SSE9.7 kmh SSE 10.0 mph16.1 kmh 30.14 in1020.7 mb 0.00 in0.0 mm 0.00 in0.0 mm 0.00 in0.0 mm
05:12 PM 66.7°F19.3°C 56.7°F13.7°C 70% 6.0 mph SSE9.7 kmh SSE 10.0 mph16.1 kmh 30.14 in1020.7 mb 0.00 in0.0 mm 0.00 in0.0 mm 0.00 in0.0 mm
05:09 PM 66.7°F19.3°C 56.7°F13.7°C 70% 6.0 mph SSE9.7 kmh SSE 10.0 mph16.1 kmh 30.14 in1020.7 mb 0.00 in0.0 mm 0.00 in0.0 mm 0.00 in0.0 mm
05:06 PM 66.9°F19.4°C 56.8°F13.8°C 70% 5.0 mph SSE8.0 kmh SSE 10.0 mph16.1 kmh 30.14 in1020.7 mb 0.00 in0.0 mm 0.00 in0.0 mm 0.00 in0.0 mm
05:03 PM 67.1°F19.5°C 57.0°F13.9°C 70% 5.0 mph SE8.0 kmh SE 10.0 mph16.1 kmh 30.14 in1020.7 mb 0.00 in0.0 mm 0.00 in0.0 mm 0.00 in0.0 mm
05:00 PM 67.3°F19.6°C 57.0°F13.9°C 70% 6.0 mph SE9.7 kmh SE 11.0 mph17.7 kmh 30.14 in1020.7 mb 0.00 in0.0 mm 0.00 in0.0 mm 0.00 in0.0 mm
04:57 PM 67.3°F19.6°C 56.7°F13.7°C 69% 7.0 mph SE11.3 kmh SE 12.0 mph19.3 kmh 30.14 in1020.7 mb 0.00 in0.0 mm 0.00 in0.0 mm 0.00 in0.0 mm
04:54 PM 67.5°F19.7°C 56.1°F13.4°C 67% 7.0 mph SE11.3 kmh SE 12.0 mph19.3 kmh 30.14 in1020.7 mb 0.00 in0.0 mm 0.00 in0.0 mm 0.00 in0.0 mm
04:51 PM 67.8°F19.9°C 55.6°F13.1°C 65% 7.0 mph SSE11.3 kmh SSE 12.0 mph19.3 kmh 30.14 in1020.7 mb 0.00 in0.0 mm 0.00 in0.0 mm 0.00 in0.0 mm
04:48 PM 68.7°F20.4°C 55.2°F12.9°C 62% 7.0 mph SSE11.3 kmh SSE 12.0 mph19.3 kmh 30.14 in1020.7 mb 0.00 in0.0 mm 0.00 in0.0 mm 0.00 in0.0 mm
04:45 PM 70.0°F21.1°C 55.0°F12.8°C 59% 8.0 mph SE12.9 kmh SE 13.0 mph20.9 kmh 30.14 in1020.7 mb 0.00 in0.0 mm 0.00 in0.0 mm 0.00 in0.0 mm
04:42 PM 71.2°F21.8°C 55.6°F13.1°C 58% 7.0 mph SE11.3 kmh SE 13.0 mph20.9 kmh 30.14 in1020.7 mb 0.00 in0.0 mm 0.00 in0.0 mm 0.00 in0.0 mm
04:39 PM 72.1°F22.3°C 55.2°F12.9°C 55% 7.0 mph E11.3 kmh E 16.0 mph25.7 kmh 30.14 in1020.7 mb 0.00 in0.0 mm 0.00 in0.0 mm 0.00 in0.0 mm
04:36 PM 73.6°F23.1°C 55.4°F13.0°C 53% 8.0 mph NE12.9 kmh NE 17.0 mph27.4 kmh 30.14 in1020.7 mb 0.00 in0.0 mm 0.00 in0.0 mm 0.00 in0.0 mm
04:33 PM 74.5°F23.6°C 51.8°F11.0°C 45% 9.0 mph NNE14.5 kmh NNE 18.0 mph29.0 kmh 30.14 in1020.7 mb 0.00 in0.0 mm 0.00 in0.0 mm 0.00 in0.0 mm
04:30 PM 74.7°F23.7°C 53.8°F12.1°C 48% 9.0 mph NNE14.5 kmh NNE 18.0 mph29.0 kmh 30.13 in1020.3 mb 0.00 in0.0 mm 0.00 in0.0 mm 0.00 in0.0 mm
04:27 PM 74.7°F23.7°C 53.8°F12.1°C 48% 9.0 mph NNE14.5 kmh NNE 18.0 mph29.0 kmh 30.13 in1020.3 mb 0.00 in0.0 mm 0.00 in0.0 mm 0.00 in0.0 mm
04:24 PM 74.7°F23.7°C 52.5°F11.4°C 46% 10.0 mph NNE16.1 kmh NNE 21.0 mph33.8 kmh 30.13 in1020.3 mb 0.00 in0.0 mm 0.00 in0.0 mm 0.00 in0.0 mm
04:21 PM 74.7°F23.7°C 53.1°F11.7°C 47% 8.0 mph NNE12.9 kmh NNE 21.0 mph33.8 kmh 30.13 in1020.3 mb 0.00 in0.0 mm 0.00 in0.0 mm 0.00 in0.0 mm
04:18 PM 74.5°F23.6°C 52.3°F11.3°C 46% 9.0 mph NNE14.5 kmh NNE 21.0 mph33.8 kmh 30.13 in1020.3 mb 0.00 in0.0 mm 0.00 in0.0 mm 0.00 in0.0 mm
04:15 PM 74.1°F23.4°C 53.8°F12.1°C 49% 8.0 mph NNE12.9 kmh NNE 19.0 mph30.6 kmh 30.13 in1020.3 mb 0.00 in0.0 mm 0.00 in0.0 mm 0.00 in0.0 mm
04:12 PM 73.9°F23.3°C 52.3°F11.3°C 47% 8.0 mph N12.9 kmh N 15.0 mph24.1 kmh 30.13 in1020.3 mb 0.00 in0.0 mm 0.00 in0.0 mm 0.00 in0.0 mm
04:09 PM 73.6°F23.1°C 53.2°F11.8°C 49% 9.0 mph NNE14.5 kmh NNE 15.0 mph24.1 kmh 30.13 in1020.3 mb 0.00 in0.0 mm 0.00 in0.0 mm 0.00 in0.0 mm
04:06 PM 73.9°F23.3°C 51.3°F10.7°C 45% 8.0 mph NNE12.9 kmh NNE 15.0 mph24.1 kmh 30.13 in1020.3 mb 0.00 in0.0 mm 0.00 in0.0 mm 0.00 in0.0 mm
04:03 PM 74.7°F23.7°C 51.8°F11.0°C 45% 8.0 mph NNE12.9 kmh NNE 15.0 mph24.1 kmh 30.13 in1020.3 mb 0.00 in0.0 mm 0.00 in0.0 mm 0.00 in0.0 mm
04:00 PM 74.8°F23.8°C 52.7°F11.5°C 46% 8.0 mph NNE12.9 kmh NNE 18.0 mph29.0 kmh 30.13 in1020.3 mb 0.00 in0.0 mm 0.00 in0.0 mm 0.00 in0.0 mm
03:57 PM 74.7°F23.7°C 52.0°F11.1°C 45% 8.0 mph NNE12.9 kmh NNE 18.0 mph29.0 kmh 30.13 in1020.3 mb 0.00 in0.0 mm 0.00 in0.0 mm 0.00 in0.0 mm
03:54 PM 74.7°F23.7°C 52.5°F11.4°C 46% 9.0 mph NNE14.5 kmh NNE 18.0 mph29.0 kmh 30.13 in1020.3 mb 0.00 in0.0 mm 0.00 in0.0 mm 0.00 in0.0 mm
03:51 PM 74.7°F23.7°C 51.8°F11.0°C 45% 9.0 mph NNE14.5 kmh NNE 17.0 mph27.4 kmh 30.13 in1020.3 mb 0.00 in0.0 mm 0.00 in0.0 mm 0.00 in0.0 mm
03:48 PM 74.8°F23.8°C 52.7°F11.5°C 46% 9.0 mph NNE14.5 kmh NNE 17.0 mph27.4 kmh 30.13 in1020.3 mb 0.00 in0.0 mm 0.00 in0.0 mm 0.00 in0.0 mm
03:45 PM 74.8°F23.8°C 52.7°F11.5°C 46% 9.0 mph NNE14.5 kmh NNE 16.0 mph25.7 kmh 30.13 in1020.3 mb 0.00 in0.0 mm 0.00 in0.0 mm 0.00 in0.0 mm
03:42 PM 74.7°F23.7°C 53.1°F11.7°C 47% 9.0 mph NNE14.5 kmh NNE 17.0 mph27.4 kmh 30.14 in1020.7 mb 0.00 in0.0 mm 0.00 in0.0 mm 0.00 in0.0 mm
03:39 PM 74.5°F23.6°C 52.9°F11.6°C 47% 9.0 mph NNE14.5 kmh NNE 24.0 mph38.6 kmh 30.13 in1020.3 mb 0.00 in0.0 mm 0.00 in0.0 mm 0.00 in0.0 mm
03:36 PM 74.1°F23.4°C 53.2°F11.8°C 48% 9.0 mph NNE14.5 kmh NNE 24.0 mph38.6 kmh 30.13 in1020.3 mb 0.00 in0.0 mm 0.00 in0.0 mm 0.00 in0.0 mm
03:33 PM 73.9°F23.3°C 52.0°F11.1°C 46% 9.0 mph NNE14.5 kmh NNE 24.0 mph38.6 kmh 30.13 in1020.3 mb 0.00 in0.0 mm 0.00 in0.0 mm 0.00 in0.0 mm
03:30 PM 73.8°F23.2°C 51.6°F10.9°C 46% 9.0 mph NNE14.5 kmh NNE 24.0 mph38.6 kmh 30.13 in1020.3 mb 0.00 in0.0 mm 0.00 in0.0 mm 0.00 in0.0 mm
03:27 PM 73.6°F23.1°C 50.4°F10.2°C 44% 9.0 mph NNE14.5 kmh NNE 18.0 mph29.0 kmh 30.13 in1020.3 mb 0.00 in0.0 mm 0.00 in0.0 mm 0.00 in0.0 mm
03:24 PM 73.9°F23.3°C 50.5°F10.3°C 44% 8.0 mph NNE12.9 kmh NNE 18.0 mph29.0 kmh 30.13 in1020.3 mb 0.00 in0.0 mm 0.00 in0.0 mm 0.00 in0.0 mm
03:21 PM 74.1°F23.4°C 53.2°F11.8°C 48% 8.0 mph NNE12.9 kmh NNE 18.0 mph29.0 kmh 30.13 in1020.3 mb 0.00 in0.0 mm 0.00 in0.0 mm 0.00 in0.0 mm
03:18 PM 73.9°F23.3°C 53.6°F12.0°C 49% 8.0 mph NNE12.9 kmh NNE 18.0 mph29.0 kmh 30.13 in1020.3 mb 0.00 in0.0 mm 0.00 in0.0 mm 0.00 in0.0 mm
03:15 PM 73.8°F23.2°C 52.9°F11.6°C 48% 9.0 mph NNE14.5 kmh NNE 18.0 mph29.0 kmh 30.13 in1020.3 mb 0.00 in0.0 mm 0.00 in0.0 mm 0.00 in0.0 mm
03:12 PM 73.9°F23.3°C 51.8°F11.0°C 46% 9.0 mph NNE14.5 kmh NNE 18.0 mph29.0 kmh 30.13 in1020.3 mb 0.00 in0.0 mm 0.00 in0.0 mm 0.00 in0.0 mm
03:09 PM 73.9°F23.3°C 52.9°F11.6°C 48% 8.0 mph NNE12.9 kmh NNE 18.0 mph29.0 kmh 30.13 in1020.3 mb 0.00 in0.0 mm 0.00 in0.0 mm 0.00 in0.0 mm
03:06 PM 73.9°F23.3°C 52.3°F11.3°C 47% 7.0 mph NNE11.3 kmh NNE 14.0 mph22.5 kmh 30.13 in1020.3 mb 0.00 in0.0 mm 0.00 in0.0 mm 0.00 in0.0 mm
03:03 PM 74.5°F23.6°C 52.9°F11.6°C 47% 7.0 mph NNE11.3 kmh NNE 16.0 mph25.7 kmh 30.13 in1020.3 mb 0.00 in0.0 mm 0.00 in0.0 mm 0.00 in0.0 mm
03:00 PM 74.5°F23.6°C 53.6°F12.0°C 48% 7.0 mph NE11.3 kmh NE 18.0 mph29.0 kmh 30.13 in1020.3 mb 0.00 in0.0 mm 0.00 in0.0 mm 0.00 in0.0 mm
02:57 PM 74.5°F23.6°C 53.4°F11.9°C 48% 8.0 mph NE12.9 kmh NE 18.0 mph29.0 kmh 30.13 in1020.3 mb 0.00 in0.0 mm 0.00 in0.0 mm 0.00 in0.0 mm
02:54 PM 74.3°F23.5°C 52.7°F11.5°C 47% 8.0 mph NNE12.9 kmh NNE 18.0 mph29.0 kmh 30.13 in1020.3 mb 0.00 in0.0 mm 0.00 in0.0 mm 0.00 in0.0 mm
02:51 PM 73.9°F23.3°C 54.1°F12.3°C 50% 8.0 mph NNE12.9 kmh NNE 17.0 mph27.4 kmh 30.13 in1020.3 mb 0.00 in0.0 mm 0.00 in0.0 mm 0.00 in0.0 mm
02:48 PM 73.2°F22.9°C 53.6°F12.0°C 50% 9.0 mph NNE14.5 kmh NNE 23.0 mph37.0 kmh 30.13 in1020.3 mb 0.00 in0.0 mm 0.00 in0.0 mm 0.00 in0.0 mm
02:45 PM 72.7°F22.6°C 53.6°F12.0°C 51% 9.0 mph NNE14.5 kmh NNE 23.0 mph37.0 kmh 30.13 in1020.3 mb 0.00 in0.0 mm 0.00 in0.0 mm 0.00 in0.0 mm
02:42 PM 72.3°F22.4°C 52.7°F11.5°C 50% 10.0 mph NE16.1 kmh NE 23.0 mph37.0 kmh 30.13 in1020.3 mb 0.00 in0.0 mm 0.00 in0.0 mm 0.00 in0.0 mm
02:39 PM 72.3°F22.4°C 50.4°F10.2°C 46% 10.0 mph NE16.1 kmh NE 23.0 mph37.0 kmh 30.13 in1020.3 mb 0.00 in0.0 mm 0.00 in0.0 mm 0.00 in0.0 mm
02:36 PM 72.7°F22.6°C 51.3°F10.7°C 47% 10.0 mph NNE16.1 kmh NNE 20.0 mph32.2 kmh 30.13 in1020.3 mb 0.00 in0.0 mm 0.00 in0.0 mm 0.00 in0.0 mm
02:33 PM 72.9°F22.7°C 51.4°F10.8°C 47% 10.0 mph NNE16.1 kmh NNE 21.0 mph33.8 kmh 30.13 in1020.3 mb 0.00 in0.0 mm 0.00 in0.0 mm 0.00 in0.0 mm
02:30 PM 73.0°F22.8°C 52.7°F11.5°C 49% 11.0 mph NNE17.7 kmh NNE 21.0 mph33.8 kmh 30.14 in1020.7 mb 0.00 in0.0 mm 0.00 in0.0 mm 0.00 in0.0 mm
02:27 PM 73.0°F22.8°C 51.6°F10.9°C 47% 10.0 mph NNE16.1 kmh NNE 21.0 mph33.8 kmh 30.13 in1020.3 mb 0.00 in0.0 mm 0.00 in0.0 mm 0.00 in0.0 mm
02:24 PM 73.0°F22.8°C 52.9°F11.6°C 49% 10.0 mph NNE16.1 kmh NNE 21.0 mph33.8 kmh 30.13 in1020.3 mb 0.00 in0.0 mm 0.00 in0.0 mm 0.00 in0.0 mm
02:21 PM 73.0°F22.8°C 54.0°F12.2°C 51% 8.0 mph NNE12.9 kmh NNE 18.0 mph29.0 kmh 30.13 in1020.3 mb 0.00 in0.0 mm 0.00 in0.0 mm 0.00 in0.0 mm
02:18 PM 73.0°F22.8°C 53.4°F11.9°C 50% 8.0 mph N12.9 kmh N 18.0 mph29.0 kmh 30.14 in1020.7 mb 0.00 in0.0 mm 0.00 in0.0 mm 0.00 in0.0 mm
02:15 PM 73.0°F22.8°C 54.5°F12.5°C 52% 8.0 mph NNE12.9 kmh NNE 18.0 mph29.0 kmh 30.13 in1020.3 mb 0.00 in0.0 mm 0.00 in0.0 mm 0.00 in0.0 mm
02:12 PM 73.0°F22.8°C 53.8°F12.1°C 51% 9.0 mph NNE14.5 kmh NNE 18.0 mph29.0 kmh 30.13 in1020.3 mb 0.00 in0.0 mm 0.00 in0.0 mm 0.00 in0.0 mm
02:09 PM 72.9°F22.7°C 53.8°F12.1°C 51% 9.0 mph NNE14.5 kmh NNE 19.0 mph30.6 kmh 30.14 in1020.7 mb 0.00 in0.0 mm 0.00 in0.0 mm 0.00 in0.0 mm
02:06 PM 72.9°F22.7°C 54.3°F12.4°C 52% 9.0 mph NNE14.5 kmh NNE 19.0 mph30.6 kmh 30.14 in1020.7 mb 0.00 in0.0 mm 0.00 in0.0 mm 0.00 in0.0 mm
02:03 PM 72.7°F22.6°C 54.5°F12.5°C 53% 9.0 mph NNE14.5 kmh NNE 19.0 mph30.6 kmh 30.14 in1020.7 mb 0.00 in0.0 mm 0.00 in0.0 mm 0.00 in0.0 mm
02:00 PM 72.5°F22.5°C 54.0°F12.2°C 52% 9.0 mph NNE14.5 kmh NNE 18.0 mph29.0 kmh 30.14 in1020.7 mb 0.00 in0.0 mm 0.00 in0.0 mm 0.00 in0.0 mm
01:57 PM 72.3°F22.4°C 53.6°F12.0°C 52% 10.0 mph NNE16.1 kmh NNE 20.0 mph32.2 kmh 30.14 in1020.7 mb 0.00 in0.0 mm 0.00 in0.0 mm 0.00 in0.0 mm
01:54 PM 72.3°F22.4°C 53.2°F11.8°C 51% 10.0 mph NNE16.1 kmh NNE 21.0 mph33.8 kmh 30.14 in1020.7 mb 0.00 in0.0 mm 0.00 in0.0 mm 0.00 in0.0 mm
01:51 PM 72.7°F22.6°C 53.1°F11.7°C 50% 10.0 mph NNE16.1 kmh NNE 21.0 mph33.8 kmh 30.14 in1020.7 mb 0.00 in0.0 mm 0.00 in0.0 mm 0.00 in0.0 mm
01:48 PM 73.0°F22.8°C 53.4°F11.9°C 50% 9.0 mph NNE14.5 kmh NNE 21.0 mph33.8 kmh 30.14 in1020.7 mb 0.00 in0.0 mm 0.00 in0.0 mm 0.00 in0.0 mm
01:45 PM 73.2°F22.9°C 54.1°F12.3°C 51% 7.0 mph N11.3 kmh N 18.0 mph29.0 kmh 30.14 in1020.7 mb 0.00 in0.0 mm 0.00 in0.0 mm 0.00 in0.0 mm
01:42 PM 73.6°F23.1°C 53.8°F12.1°C 50% 8.0 mph N12.9 kmh N 18.0 mph29.0 kmh 30.14 in1020.7 mb 0.00 in0.0 mm 0.00 in0.0 mm 0.00 in0.0 mm
01:39 PM 73.6°F23.1°C 54.9°F12.7°C 52% 9.0 mph NNE14.5 kmh NNE 18.0 mph29.0 kmh 30.14 in1020.7 mb 0.00 in0.0 mm 0.00 in0.0 mm 0.00 in0.0 mm
01:36 PM 73.6°F23.1°C 54.3°F12.4°C 51% 11.0 mph NNE17.7 kmh NNE 20.0 mph32.2 kmh 30.14 in1020.7 mb 0.00 in0.0 mm 0.00 in0.0 mm 0.00 in0.0 mm
01:33 PM 73.8°F23.2°C 54.0°F12.2°C 50% 11.0 mph NNE17.7 kmh NNE 20.0 mph32.2 kmh 30.14 in1020.7 mb 0.00 in0.0 mm 0.00 in0.0 mm 0.00 in0.0 mm
01:30 PM 73.8°F23.2°C 54.0°F12.2°C 50% 11.0 mph NNE17.7 kmh NNE 20.0 mph32.2 kmh 30.14 in1020.7 mb 0.00 in0.0 mm 0.00 in0.0 mm 0.00 in0.0 mm
01:27 PM 73.9°F23.3°C 54.7°F12.6°C 51% 10.0 mph NNE16.1 kmh NNE 20.0 mph32.2 kmh 30.14 in1020.7 mb 0.00 in0.0 mm 0.00 in0.0 mm 0.00 in0.0 mm
01:24 PM 73.6°F23.1°C 56.3°F13.5°C 55% 8.0 mph NNE12.9 kmh NNE 19.0 mph30.6 kmh 30.14 in1020.7 mb 0.00 in0.0 mm 0.00 in0.0 mm 0.00 in0.0 mm
01:21 PM 72.9°F22.7°C 55.2°F12.9°C 54% 8.0 mph NNE12.9 kmh NNE 15.0 mph24.1 kmh 30.14 in1020.7 mb 0.00 in0.0 mm 0.00 in0.0 mm 0.00 in0.0 mm
01:18 PM 72.0°F22.2°C 54.3°F12.4°C 54% 7.0 mph NE11.3 kmh NE 22.0 mph35.4 kmh 30.14 in1020.7 mb 0.00 in0.0 mm 0.00 in0.0 mm 0.00 in0.0 mm
01:15 PM 71.2°F21.8°C 52.2°F11.2°C 51% 8.0 mph NE12.9 kmh NE 22.0 mph35.4 kmh 30.14 in1020.7 mb 0.00 in0.0 mm 0.00 in0.0 mm 0.00 in0.0 mm
01:12 PM 70.9°F21.6°C 51.8°F11.0°C 51% 8.0 mph NE12.9 kmh NE 22.0 mph35.4 kmh 30.14 in1020.7 mb 0.00 in0.0 mm 0.00 in0.0 mm 0.00 in0.0 mm
01:09 PM 70.9°F21.6°C 51.8°F11.0°C 51% 8.0 mph NE12.9 kmh NE 18.0 mph29.0 kmh 30.14 in1020.7 mb 0.00 in0.0 mm 0.00 in0.0 mm 0.00 in0.0 mm
01:06 PM 71.1°F21.7°C 51.4°F10.8°C 50% 9.0 mph NE14.5 kmh NE 18.0 mph29.0 kmh 30.14 in1020.7 mb 0.00 in0.0 mm 0.00 in0.0 mm 0.00 in0.0 mm
01:03 PM 71.4°F21.9°C 51.8°F11.0°C 50% 9.0 mph NE14.5 kmh NE 18.0 mph29.0 kmh 30.14 in1020.7 mb 0.00 in0.0 mm 0.00 in0.0 mm 0.00 in0.0 mm
01:00 PM 71.4°F21.9°C 52.3°F11.3°C 51% 8.0 mph NE12.9 kmh NE 18.0 mph29.0 kmh 30.14 in1020.7 mb 0.00 in0.0 mm 0.00 in0.0 mm 0.00 in0.0 mm
12:57 PM 72.0°F22.2°C 51.1°F10.6°C 48% 9.0 mph NE14.5 kmh NE 17.0 mph27.4 kmh 30.14 in1020.7 mb 0.00 in0.0 mm 0.00 in0.0 mm 0.00 in0.0 mm
12:54 PM 72.1°F22.3°C 52.5°F11.4°C 50% 9.0 mph NE14.5 kmh NE 17.0 mph27.4 kmh 30.14 in1020.7 mb 0.00 in0.0 mm 0.00 in0.0 mm 0.00 in0.0 mm
12:51 PM 72.9°F22.7°C 52.0°F11.1°C 48% 9.0 mph NE14.5 kmh NE 19.0 mph30.6 kmh 30.14 in1020.7 mb 0.00 in0.0 mm 0.00 in0.0 mm 0.00 in0.0 mm
12:48 PM 73.6°F23.1°C 53.8°F12.1°C 50% 9.0 mph NNE14.5 kmh NNE 19.0 mph30.6 kmh 30.14 in1020.7 mb 0.00 in0.0 mm 0.00 in0.0 mm 0.00 in0.0 mm
12:45 PM 73.6°F23.1°C 55.4°F13.0°C 53% 9.0 mph NNE14.5 kmh NNE 19.0 mph30.6 kmh 30.14 in1020.7 mb 0.00 in0.0 mm 0.00 in0.0 mm 0.00 in0.0 mm
12:42 PM 73.2°F22.9°C 55.6°F13.1°C 54% 8.0 mph NNE12.9 kmh NNE 17.0 mph27.4 kmh 30.14 in1020.7 mb 0.00 in0.0 mm 0.00 in0.0 mm 0.00 in0.0 mm
12:39 PM 72.9°F22.7°C 54.7°F12.6°C 53% 8.0 mph NNE12.9 kmh NNE 21.0 mph33.8 kmh 30.14 in1020.7 mb 0.00 in0.0 mm 0.00 in0.0 mm 0.00 in0.0 mm
12:36 PM 72.7°F22.6°C 55.0°F12.8°C 54% 8.0 mph NNE12.9 kmh NNE 21.0 mph33.8 kmh 30.14 in1020.7 mb 0.00 in0.0 mm 0.00 in0.0 mm 0.00 in0.0 mm
12:33 PM 72.3°F22.4°C 54.1°F12.3°C 53% 8.0 mph NNE12.9 kmh NNE 21.0 mph33.8 kmh 30.14 in1020.7 mb 0.00 in0.0 mm 0.00 in0.0 mm 0.00 in0.0 mm
12:30 PM 72.3°F22.4°C 54.1°F12.3°C 53% 9.0 mph NE14.5 kmh NE 21.0 mph33.8 kmh 30.14 in1020.7 mb 0.00 in0.0 mm 0.00 in0.0 mm 0.00 in0.0 mm
12:27 PM 72.1°F22.3°C 54.5°F12.5°C 54% 10.0 mph NE16.1 kmh NE 21.0 mph33.8 kmh 30.14 in1020.7 mb 0.00 in0.0 mm 0.00 in0.0 mm 0.00 in0.0 mm
12:24 PM 72.1°F22.3°C 53.1°F11.7°C 51% 10.0 mph NNE16.1 kmh NNE 21.0 mph33.8 kmh 30.14 in1020.7 mb 0.00 in0.0 mm 0.00 in0.0 mm 0.00 in0.0 mm
12:21 PM 72.7°F22.6°C 54.5°F12.5°C 53% 9.0 mph NE14.5 kmh NE 21.0 mph33.8 kmh 30.14 in1020.7 mb 0.00 in0.0 mm 0.00 in0.0 mm 0.00 in0.0 mm
12:18 PM 72.5°F22.5°C 56.5°F13.6°C 57% 8.0 mph NNE12.9 kmh NNE 20.0 mph32.2 kmh 30.14 in1020.7 mb 0.00 in0.0 mm 0.00 in0.0 mm 0.00 in0.0 mm
12:15 PM 72.3°F22.4°C 55.8°F13.2°C 56% 8.0 mph NNE12.9 kmh NNE 17.0 mph27.4 kmh 30.14 in1020.7 mb 0.00 in0.0 mm 0.00 in0.0 mm 0.00 in0.0 mm
12:12 PM 72.3°F22.4°C 55.8°F13.2°C 56% 8.0 mph NNE12.9 kmh NNE 17.0 mph27.4 kmh 30.14 in1020.7 mb 0.00 in0.0 mm 0.00 in0.0 mm 0.00 in0.0 mm
12:09 PM 72.0°F22.2°C 56.8°F13.8°C 59% 8.0 mph NNE12.9 kmh NNE 17.0 mph27.4 kmh 30.14 in1020.7 mb 0.00 in0.0 mm 0.00 in0.0 mm 0.00 in0.0 mm
12:06 PM 71.8°F22.1°C 54.7°F12.6°C 55% 8.0 mph NNE12.9 kmh NNE 17.0 mph27.4 kmh 30.14 in1020.7 mb 0.00 in0.0 mm 0.00 in0.0 mm 0.00 in0.0 mm
12:03 PM 71.8°F22.1°C 55.6°F13.1°C 57% 9.0 mph NNE14.5 kmh NNE 17.0 mph27.4 kmh 30.14 in1020.7 mb 0.00 in0.0 mm 0.00 in0.0 mm 0.00 in0.0 mm
12:00 PM 71.4°F21.9°C 56.8°F13.8°C 60% 8.0 mph NNE12.9 kmh NNE 17.0 mph27.4 kmh 30.14 in1020.7 mb 0.00 in0.0 mm 0.00 in0.0 mm 0.00 in0.0 mm
11:57 AM 71.4°F21.9°C 56.3°F13.5°C 59% 9.0 mph NNE14.5 kmh NNE 20.0 mph32.2 kmh 30.14 in1020.7 mb 0.00 in0.0 mm 0.00 in0.0 mm 0.00 in0.0 mm
11:54 AM 71.2°F21.8°C 55.8°F13.2°C 58% 9.0 mph N14.5 kmh N 20.0 mph32.2 kmh 30.14 in1020.7 mb 0.00 in0.0 mm 0.00 in0.0 mm 0.00 in0.0 mm
11:51 AM 71.2°F21.8°C 54.9°F12.7°C 56% 9.0 mph N14.5 kmh N 20.0 mph32.2 kmh 30.15 in1021.0 mb 0.00 in0.0 mm 0.00 in0.0 mm 0.00 in0.0 mm
11:48 AM 71.4°F21.9°C 55.9°F13.3°C 58% 8.0 mph N12.9 kmh N 16.0 mph25.7 kmh 30.14 in1020.7 mb 0.00 in0.0 mm 0.00 in0.0 mm 0.00 in0.0 mm
11:45 AM 71.2°F21.8°C 56.7°F13.7°C 60% 9.0 mph NNE14.5 kmh NNE 20.0 mph32.2 kmh 30.14 in1020.7 mb 0.00 in0.0 mm 0.00 in0.0 mm 0.00 in0.0 mm
11:42 AM 70.9°F21.6°C 56.3°F13.5°C 60% 9.0 mph NNE14.5 kmh NNE 20.0 mph32.2 kmh 30.14 in1020.7 mb 0.00 in0.0 mm 0.00 in0.0 mm 0.00 in0.0 mm
11:39 AM 70.7°F21.5°C 55.6°F13.1°C 59% 10.0 mph NNE16.1 kmh NNE 20.0 mph32.2 kmh 30.14 in1020.7 mb 0.00 in0.0 mm 0.00 in0.0 mm 0.00 in0.0 mm
11:36 AM 70.5°F21.4°C 55.6°F13.1°C 59% 9.0 mph N14.5 kmh N 16.0 mph25.7 kmh 30.15 in1021.0 mb 0.00 in0.0 mm 0.00 in0.0 mm 0.00 in0.0 mm
11:33 AM 70.3°F21.3°C 55.8°F13.2°C 60% 9.0 mph N14.5 kmh N 16.0 mph25.7 kmh 30.15 in1021.0 mb 0.00 in0.0 mm 0.00 in0.0 mm 0.00 in0.0 mm
11:30 AM 70.3°F21.3°C 55.8°F13.2°C 60% 9.0 mph N14.5 kmh N 16.0 mph25.7 kmh 30.15 in1021.0 mb 0.00 in0.0 mm 0.00 in0.0 mm 0.00 in0.0 mm
11:27 AM 70.3°F21.3°C 56.7°F13.7°C 62% 9.0 mph NNE14.5 kmh NNE 19.0 mph30.6 kmh 30.15 in1021.0 mb 0.00 in0.0 mm 0.00 in0.0 mm 0.00 in0.0 mm
11:24 AM 70.2°F21.2°C 55.6°F13.1°C 60% 9.0 mph NNE14.5 kmh NNE 19.0 mph30.6 kmh 30.15 in1021.0 mb 0.00 in0.0 mm 0.00 in0.0 mm 0.00 in0.0 mm
11:21 AM 70.2°F21.2°C 55.0°F12.8°C 59% 10.0 mph NNE16.1 kmh NNE 19.0 mph30.6 kmh 30.15 in1021.0 mb 0.00 in0.0 mm 0.00 in0.0 mm 0.00 in0.0 mm
11:18 AM 70.2°F21.2°C 55.9°F13.3°C 61% 10.0 mph N16.1 kmh N 17.0 mph27.4 kmh 30.15 in1021.0 mb 0.00 in0.0 mm 0.00 in0.0 mm 0.00 in0.0 mm
11:15 AM 70.0°F21.1°C 56.8°F13.8°C 63% 10.0 mph N16.1 kmh N 17.0 mph27.4 kmh 30.15 in1021.0 mb 0.00 in0.0 mm 0.00 in0.0 mm 0.00 in0.0 mm
11:12 AM 70.0°F21.1°C 56.3°F13.5°C 62% 9.0 mph N14.5 kmh N 17.0 mph27.4 kmh 30.15 in1021.0 mb 0.00 in0.0 mm 0.00 in0.0 mm 0.00 in0.0 mm
11:09 AM 70.0°F21.1°C 57.2°F14.0°C 64% 8.0 mph N12.9 kmh N 16.0 mph25.7 kmh 30.15 in1021.0 mb 0.00 in0.0 mm 0.00 in0.0 mm 0.00 in0.0 mm
11:06 AM 69.8°F21.0°C 57.0°F13.9°C 64% 9.0 mph NNE14.5 kmh NNE 17.0 mph27.4 kmh 30.15 in1021.0 mb 0.00 in0.0 mm 0.00 in0.0 mm 0.00 in0.0 mm
11:03 AM 69.6°F20.9°C 56.5°F13.6°C 63% 9.0 mph N14.5 kmh N 17.0 mph27.4 kmh 30.15 in1021.0 mb 0.00 in0.0 mm 0.00 in0.0 mm 0.00 in0.0 mm
11:00 AM 69.4°F20.8°C 56.8°F13.8°C 64% 10.0 mph N16.1 kmh N 17.0 mph27.4 kmh 30.15 in1021.0 mb 0.00 in0.0 mm 0.00 in0.0 mm 0.00 in0.0 mm
10:57 AM 69.4°F20.8°C 57.2°F14.0°C 65% 10.0 mph N16.1 kmh N 17.0 mph27.4 kmh 30.15 in1021.0 mb 0.00 in0.0 mm 0.00 in0.0 mm 0.00 in0.0 mm
10:54 AM 69.3°F20.7°C 56.7°F13.7°C 64% 9.0 mph N14.5 kmh N 17.0 mph27.4 kmh 30.15 in1021.0 mb 0.00 in0.0 mm 0.00 in0.0 mm 0.00 in0.0 mm
10:51 AM 69.3°F20.7°C 56.5°F13.6°C 64% 10.0 mph N16.1 kmh N 18.0 mph29.0 kmh 30.15 in1021.0 mb 0.00 in0.0 mm 0.00 in0.0 mm 0.00 in0.0 mm
10:48 AM 69.1°F20.6°C 56.8°F13.8°C 65% 10.0 mph N16.1 kmh N 18.0 mph29.0 kmh 30.15 in1021.0 mb 0.00 in0.0 mm 0.00 in0.0 mm 0.00 in0.0 mm
10:45 AM 68.9°F20.5°C 56.3°F13.5°C 64% 11.0 mph N17.7 kmh N 18.0 mph29.0 kmh 30.15 in1021.0 mb 0.00 in0.0 mm 0.00 in0.0 mm 0.00 in0.0 mm
10:42 AM 68.7°F20.4°C 56.5°F13.6°C 65% 11.0 mph N17.7 kmh N 19.0 mph30.6 kmh 30.15 in1021.0 mb 0.00 in0.0 mm 0.00 in0.0 mm 0.00 in0.0 mm
10:39 AM 68.7°F20.4°C 56.5°F13.6°C 65% 10.0 mph N16.1 kmh N 19.0 mph30.6 kmh 30.15 in1021.0 mb 0.00 in0.0 mm 0.00 in0.0 mm 0.00 in0.0 mm
10:36 AM 68.5°F20.3°C 56.3°F13.5°C 65% 11.0 mph N17.7 kmh N 19.0 mph30.6 kmh 30.15 in1021.0 mb 0.00 in0.0 mm 0.00 in0.0 mm 0.00 in0.0 mm
10:33 AM 68.5°F20.3°C 56.7°F13.7°C 66% 11.0 mph N17.7 kmh N 19.0 mph30.6 kmh 30.15 in1021.0 mb 0.00 in0.0 mm 0.00 in0.0 mm 0.00 in0.0 mm
10:30 AM 68.4°F20.2°C 56.1°F13.4°C 65% 12.0 mph N19.3 kmh N 19.0 mph30.6 kmh 30.15 in1021.0 mb 0.00 in0.0 mm 0.00 in0.0 mm 0.00 in0.0 mm
10:27 AM 68.4°F20.2°C 56.7°F13.7°C 66% 11.0 mph N17.7 kmh N 19.0 mph30.6 kmh 30.15 in1021.0 mb 0.00 in0.0 mm 0.00 in0.0 mm 0.00 in0.0 mm
10:24 AM 68.4°F20.2°C 56.8°F13.8°C 67% 10.0 mph N16.1 kmh N 18.0 mph29.0 kmh 30.16 in1021.3 mb 0.00 in0.0 mm 0.00 in0.0 mm 0.00 in0.0 mm
10:21 AM 68.2°F20.1°C 56.8°F13.8°C 67% 10.0 mph N16.1 kmh N 15.0 mph24.1 kmh 30.16 in1021.3 mb 0.00 in0.0 mm 0.00 in0.0 mm 0.00 in0.0 mm
10:18 AM 68.2°F20.1°C 57.6°F14.2°C 69% 9.0 mph N14.5 kmh N 16.0 mph25.7 kmh 30.16 in1021.3 mb 0.00 in0.0 mm 0.00 in0.0 mm 0.00 in0.0 mm
10:15 AM 68.0°F20.0°C 56.7°F13.7°C 67% 9.0 mph N14.5 kmh N 16.0 mph25.7 kmh 30.16 in1021.3 mb 0.00 in0.0 mm 0.00 in0.0 mm 0.00 in0.0 mm
10:12 AM 67.8°F19.9°C 57.7°F14.3°C 70% 9.0 mph N14.5 kmh N 19.0 mph30.6 kmh 30.16 in1021.3 mb 0.00 in0.0 mm 0.00 in0.0 mm 0.00 in0.0 mm
10:09 AM 67.6°F19.8°C 58.3°F14.6°C 72% 9.0 mph N14.5 kmh N 19.0 mph30.6 kmh 30.16 in1021.3 mb 0.00 in0.0 mm 0.00 in0.0 mm 0.00 in0.0 mm
10:06 AM 67.3°F19.6°C 57.6°F14.2°C 71% 10.0 mph N16.1 kmh N 19.0 mph30.6 kmh 30.16 in1021.3 mb 0.00 in0.0 mm 0.00 in0.0 mm 0.00 in0.0 mm
10:03 AM 67.3°F19.6°C 57.6°F14.2°C 71% 10.0 mph N16.1 kmh N 19.0 mph30.6 kmh 30.15 in1021.0 mb 0.00 in0.0 mm 0.00 in0.0 mm 0.00 in0.0 mm
10:00 AM 67.3°F19.6°C 57.9°F14.4°C 72% 10.0 mph N16.1 kmh N 16.0 mph25.7 kmh 30.16 in1021.3 mb 0.00 in0.0 mm 0.00 in0.0 mm 0.00 in0.0 mm
09:57 AM 67.1°F19.5°C 57.4°F14.1°C 71% 9.0 mph N14.5 kmh N 16.0 mph25.7 kmh 30.15 in1021.0 mb 0.00 in0.0 mm 0.00 in0.0 mm 0.00 in0.0 mm
09:54 AM 66.9°F19.4°C 57.7°F14.3°C 72% 9.0 mph N14.5 kmh N 16.0 mph25.7 kmh 30.15 in1021.0 mb 0.00 in0.0 mm 0.00 in0.0 mm 0.00 in0.0 mm
09:51 AM 66.7°F19.3°C 57.9°F14.4°C 73% 9.0 mph N14.5 kmh N 16.0 mph25.7 kmh 30.16 in1021.3 mb 0.00 in0.0 mm 0.00 in0.0 mm 0.00 in0.0 mm
09:48 AM 66.7°F19.3°C 57.7°F14.3°C 73% 9.0 mph NNE14.5 kmh NNE 16.0 mph25.7 kmh 30.15 in1021.0 mb 0.00 in0.0 mm 0.00 in0.0 mm 0.00 in0.0 mm
09:45 AM 66.6°F19.2°C 58.1°F14.5°C 74% 9.0 mph N14.5 kmh N 15.0 mph24.1 kmh 30.16 in1021.3 mb 0.00 in0.0 mm 0.00 in0.0 mm 0.00 in0.0 mm
09:42 AM 66.4°F19.1°C 57.9°F14.4°C 74% 9.0 mph N14.5 kmh N 15.0 mph24.1 kmh 30.16 in1021.3 mb 0.00 in0.0 mm 0.00 in0.0 mm 0.00 in0.0 mm
09:39 AM 66.0°F18.9°C 58.3°F14.6°C 76% 9.0 mph N14.5 kmh N 15.0 mph24.1 kmh 30.16 in1021.3 mb 0.00 in0.0 mm 0.00 in0.0 mm 0.00 in0.0 mm
09:36 AM 65.8°F18.8°C 58.1°F14.5°C 76% 9.0 mph N14.5 kmh N 15.0 mph24.1 kmh 30.16 in1021.3 mb 0.00 in0.0 mm 0.00 in0.0 mm 0.00 in0.0 mm
09:33 AM 65.7°F18.7°C 57.4°F14.1°C 75% 9.0 mph N14.5 kmh N 17.0 mph27.4 kmh 30.16 in1021.3 mb 0.00 in0.0 mm 0.00 in0.0 mm 0.00 in0.0 mm
09:30 AM 65.5°F18.6°C 57.7°F14.3°C 76% 9.0 mph N14.5 kmh N 17.0 mph27.4 kmh 30.16 in1021.3 mb 0.00 in0.0 mm 0.00 in0.0 mm 0.00 in0.0 mm
09:27 AM 65.1°F18.4°C 57.4°F14.1°C 76% 9.0 mph N14.5 kmh N 17.0 mph27.4 kmh 30.16 in1021.3 mb 0.00 in0.0 mm 0.00 in0.0 mm 0.00 in0.0 mm
09:24 AM 64.9°F18.3°C 57.2°F14.0°C 76% 8.0 mph N12.9 kmh N 14.0 mph22.5 kmh 30.16 in1021.3 mb 0.00 in0.0 mm 0.00 in0.0 mm 0.00 in0.0 mm
09:21 AM 64.8°F18.2°C 57.0°F13.9°C 76% 8.0 mph N12.9 kmh N 15.0 mph24.1 kmh 30.16 in1021.3 mb 0.00 in0.0 mm 0.00 in0.0 mm 0.00 in0.0 mm
09:18 AM 64.6°F18.1°C 56.8°F13.8°C 76% 8.0 mph N12.9 kmh N 15.0 mph24.1 kmh 30.16 in1021.3 mb 0.00 in0.0 mm 0.00 in0.0 mm 0.00 in0.0 mm
09:15 AM 64.4°F18.0°C 57.0°F13.9°C 77% 8.0 mph N12.9 kmh N 15.0 mph24.1 kmh 30.16 in1021.3 mb 0.00 in0.0 mm 0.00 in0.0 mm 0.00 in0.0 mm
09:12 AM 64.2°F17.9°C 57.2°F14.0°C 78% 8.0 mph N12.9 kmh N 13.0 mph20.9 kmh 30.16 in1021.3 mb 0.00 in0.0 mm 0.00 in0.0 mm 0.00 in0.0 mm
09:09 AM 63.9°F17.7°C 56.5°F13.6°C 77% 9.0 mph N14.5 kmh N 15.0 mph24.1 kmh 30.16 in1021.3 mb 0.00 in0.0 mm 0.00 in0.0 mm 0.00 in0.0 mm
09:06 AM 63.7°F17.6°C 56.3°F13.5°C 77% 9.0 mph N14.5 kmh N 16.0 mph25.7 kmh 30.16 in1021.3 mb 0.00 in0.0 mm 0.00 in0.0 mm 0.00 in0.0 mm
09:03 AM 63.5°F17.5°C 56.1°F13.4°C 77% 10.0 mph N16.1 kmh N 16.0 mph25.7 kmh 30.16 in1021.3 mb 0.00 in0.0 mm 0.00 in0.0 mm 0.00 in0.0 mm
09:00 AM 63.3°F17.4°C 56.1°F13.4°C 77% 11.0 mph N17.7 kmh N 17.0 mph27.4 kmh 30.16 in1021.3 mb 0.00 in0.0 mm 0.00 in0.0 mm 0.00 in0.0 mm
08:57 AM 63.3°F17.4°C 55.6°F13.1°C 76% 13.0 mph N20.9 kmh N 23.0 mph37.0 kmh 30.16 in1021.3 mb 0.00 in0.0 mm 0.00 in0.0 mm 0.00 in0.0 mm
08:54 AM 63.3°F17.4°C 55.8°F13.2°C 76% 13.0 mph N20.9 kmh N 23.0 mph37.0 kmh 30.16 in1021.3 mb 0.00 in0.0 mm 0.00 in0.0 mm 0.00 in0.0 mm
08:51 AM 63.5°F17.5°C 55.4°F13.0°C 75% 12.0 mph N19.3 kmh N 23.0 mph37.0 kmh 30.16 in1021.3 mb 0.00 in0.0 mm 0.00 in0.0 mm 0.00 in0.0 mm
08:48 AM 63.7°F17.6°C 55.9°F13.3°C 76% 11.0 mph N17.7 kmh N 18.0 mph29.0 kmh 30.16 in1021.3 mb 0.00 in0.0 mm 0.00 in0.0 mm 0.00 in0.0 mm
08:45 AM 63.7°F17.6°C 55.9°F13.3°C 76% 10.0 mph N16.1 kmh N 18.0 mph29.0 kmh 30.16 in1021.3 mb 0.00 in0.0 mm 0.00 in0.0 mm 0.00 in0.0 mm
08:42 AM 63.7°F17.6°C 55.9°F13.3°C 76% 8.0 mph N12.9 kmh N 18.0 mph29.0 kmh 30.16 in1021.3 mb 0.00 in0.0 mm 0.00 in0.0 mm 0.00 in0.0 mm
08:39 AM 63.7°F17.6°C 55.9°F13.3°C 76% 7.0 mph N11.3 kmh N 14.0 mph22.5 kmh 30.16 in1021.3 mb 0.00 in0.0 mm 0.00 in0.0 mm 0.00 in0.0 mm
08:36 AM 63.5°F17.5°C 55.8°F13.2°C 76% 7.0 mph N11.3 kmh N 14.0 mph22.5 kmh 30.16 in1021.3 mb 0.00 in0.0 mm 0.00 in0.0 mm 0.00 in0.0 mm
08:33 AM 63.5°F17.5°C 56.1°F13.4°C 77% 7.0 mph N11.3 kmh N 13.0 mph20.9 kmh 30.16 in1021.3 mb 0.00 in0.0 mm 0.00 in0.0 mm 0.00 in0.0 mm
08:30 AM 63.0°F17.2°C 56.3°F13.5°C 79% 7.0 mph N11.3 kmh N 13.0 mph20.9 kmh 30.16 in1021.3 mb 0.00 in0.0 mm 0.00 in0.0 mm 0.00 in0.0 mm
08:27 AM 63.0°F17.2°C 56.3°F13.5°C 79% 7.0 mph N11.3 kmh N 12.0 mph19.3 kmh 30.16 in1021.3 mb 0.00 in0.0 mm 0.00 in0.0 mm 0.00 in0.0 mm
08:24 AM 62.2°F16.8°C 55.6°F13.1°C 79% 8.0 mph N12.9 kmh N 17.0 mph27.4 kmh 30.16 in1021.3 mb 0.00 in0.0 mm 0.00 in0.0 mm 0.00 in0.0 mm
08:21 AM 62.2°F16.8°C 55.6°F13.1°C 79% 9.0 mph N14.5 kmh N 17.0 mph27.4 kmh 30.16 in1021.3 mb 0.00 in0.0 mm 0.00 in0.0 mm 0.00 in0.0 mm
08:18 AM 62.2°F16.8°C 55.6°F13.1°C 79% 10.0 mph N16.1 kmh N 17.0 mph27.4 kmh 30.16 in1021.3 mb 0.00 in0.0 mm 0.00 in0.0 mm 0.00 in0.0 mm
08:15 AM 62.1°F16.7°C 55.0°F12.8°C 78% 10.0 mph N16.1 kmh N 17.0 mph27.4 kmh 30.17 in1021.7 mb 0.00 in0.0 mm 0.00 in0.0 mm 0.00 in0.0 mm
08:12 AM 61.9°F16.6°C 55.2°F12.9°C 79% 10.0 mph N16.1 kmh N 18.0 mph29.0 kmh 30.16 in1021.3 mb 0.00 in0.0 mm 0.00 in0.0 mm 0.00 in0.0 mm
08:09 AM 61.7°F16.5°C 55.0°F12.8°C 79% 10.0 mph N16.1 kmh N 18.0 mph29.0 kmh 30.16 in1021.3 mb 0.00 in0.0 mm 0.00 in0.0 mm 0.00 in0.0 mm
08:06 AM 61.5°F16.4°C 54.9°F12.7°C 79% 11.0 mph N17.7 kmh N 18.0 mph29.0 kmh 30.16 in1021.3 mb 0.00 in0.0 mm 0.00 in0.0 mm 0.00 in0.0 mm
08:03 AM 61.3°F16.3°C 54.9°F12.7°C 79% 11.0 mph N17.7 kmh N 18.0 mph29.0 kmh 30.16 in1021.3 mb 0.00 in0.0 mm 0.00 in0.0 mm 0.00 in0.0 mm
08:00 AM 61.3°F16.3°C 55.0°F12.8°C 80% 12.0 mph N19.3 kmh N 18.0 mph29.0 kmh 30.16 in1021.3 mb 0.00 in0.0 mm 0.00 in0.0 mm 0.00 in0.0 mm
07:57 AM 61.2°F16.2°C 54.7°F12.6°C 79% 12.0 mph N19.3 kmh N 18.0 mph29.0 kmh 30.16 in1021.3 mb 0.00 in0.0 mm 0.00 in0.0 mm 0.00 in0.0 mm
07:54 AM 61.2°F16.2°C 54.7°F12.6°C 79% 13.0 mph N20.9 kmh N 20.0 mph32.2 kmh 30.16 in1021.3 mb 0.00 in0.0 mm 0.00 in0.0 mm 0.00 in0.0 mm
07:51 AM 61.2°F16.2°C 54.5°F12.5°C 79% 12.0 mph N19.3 kmh N 20.0 mph32.2 kmh 30.16 in1021.3 mb 0.00 in0.0 mm 0.00 in0.0 mm 0.00 in0.0 mm
07:48 AM 61.2°F16.2°C 54.5°F12.5°C 79% 13.0 mph N20.9 kmh N 20.0 mph32.2 kmh 30.16 in1021.3 mb 0.00 in0.0 mm 0.00 in0.0 mm 0.00 in0.0 mm
07:45 AM 61.0°F16.1°C 54.5°F12.5°C 79% 12.0 mph N19.3 kmh N 20.0 mph32.2 kmh 30.16 in1021.3 mb 0.00 in0.0 mm 0.00 in0.0 mm 0.00 in0.0 mm
07:42 AM 61.0°F16.1°C 54.7°F12.6°C 80% 13.0 mph N20.9 kmh N 19.0 mph30.6 kmh 30.16 in1021.3 mb 0.00 in0.0 mm 0.00 in0.0 mm 0.00 in0.0 mm
07:39 AM 60.6°F15.9°C 54.1°F12.3°C 79% 13.0 mph N20.9 kmh N 19.0 mph30.6 kmh 30.16 in1021.3 mb 0.00 in0.0 mm 0.00 in0.0 mm 0.00 in0.0 mm
07:36 AM 60.6°F15.9°C 54.0°F12.2°C 79% 13.0 mph N20.9 kmh N 19.0 mph30.6 kmh 30.15 in1021.0 mb 0.00 in0.0 mm 0.00 in0.0 mm 0.00 in0.0 mm
07:33 AM 60.6°F15.9°C 54.0°F12.2°C 79% 12.0 mph N19.3 kmh N 19.0 mph30.6 kmh 30.15 in1021.0 mb 0.00 in0.0 mm 0.00 in0.0 mm 0.00 in0.0 mm
07:30 AM 60.6°F15.9°C 54.3°F12.4°C 80% 11.0 mph N17.7 kmh N 19.0 mph30.6 kmh 30.15 in1021.0 mb 0.00 in0.0 mm 0.00 in0.0 mm 0.00 in0.0 mm
07:27 AM 60.4°F15.8°C 54.1°F12.3°C 80% 11.0 mph N17.7 kmh N 17.0 mph27.4 kmh 30.15 in1021.0 mb 0.00 in0.0 mm 0.00 in0.0 mm 0.00 in0.0 mm
07:24 AM 60.3°F15.7°C 54.3°F12.4°C 81% 11.0 mph N17.7 kmh N 17.0 mph27.4 kmh 30.15 in1021.0 mb 0.00 in0.0 mm 0.00 in0.0 mm 0.00 in0.0 mm
07:21 AM 60.1°F15.6°C 54.1°F12.3°C 81% 12.0 mph N19.3 kmh N 19.0 mph30.6 kmh 30.15 in1021.0 mb 0.00 in0.0 mm 0.00 in0.0 mm 0.00 in0.0 mm
07:18 AM 59.7°F15.4°C 54.3°F12.4°C 82% 13.0 mph N20.9 kmh N 19.0 mph30.6 kmh 30.15 in1021.0 mb 0.00 in0.0 mm 0.00 in0.0 mm 0.00 in0.0 mm
07:15 AM 59.5°F15.3°C 54.1°F12.3°C 82% 13.0 mph N20.9 kmh N 19.0 mph30.6 kmh 30.15 in1021.0 mb 0.00 in0.0 mm 0.00 in0.0 mm 0.00 in0.0 mm
07:12 AM 58.8°F14.9°C 53.8°F12.1°C 83% 13.0 mph N20.9 kmh N 19.0 mph30.6 kmh 30.14 in1020.7 mb 0.00 in0.0 mm 0.00 in0.0 mm 0.00 in0.0 mm
07:09 AM 58.8°F14.9°C 53.8°F12.1°C 83% 13.0 mph N20.9 kmh N 18.0 mph29.0 kmh 30.15 in1021.0 mb 0.00 in0.0 mm 0.00 in0.0 mm 0.00 in0.0 mm
07:06 AM 58.8°F14.9°C 53.8°F12.1°C 83% 12.0 mph NNW19.3 kmh NNW 18.0 mph29.0 kmh 30.15 in1021.0 mb 0.00 in0.0 mm 0.00 in0.0 mm 0.00 in0.0 mm
07:03 AM 58.8°F14.9°C 53.6°F12.0°C 83% 12.0 mph NNW19.3 kmh NNW 18.0 mph29.0 kmh 30.15 in1021.0 mb 0.00 in0.0 mm 0.00 in0.0 mm 0.00 in0.0 mm
07:00 AM 58.6°F14.8°C 53.8°F12.1°C 84% 12.0 mph NNW19.3 kmh NNW 18.0 mph29.0 kmh 30.15 in1021.0 mb 0.00 in0.0 mm 0.00 in0.0 mm 0.00 in0.0 mm
06:57 AM 58.1°F14.5°C 53.2°F11.8°C 84% 12.0 mph NNW19.3 kmh NNW 18.0 mph29.0 kmh 30.15 in1021.0 mb 0.00 in0.0 mm 0.00 in0.0 mm 0.00 in0.0 mm
06:54 AM 57.7°F14.3°C 53.1°F11.7°C 84% 12.0 mph NNW19.3 kmh NNW 18.0 mph29.0 kmh 30.15 in1021.0 mb 0.00 in0.0 mm 0.00 in0.0 mm 0.00 in0.0 mm
06:51 AM 57.7°F14.3°C 52.9°F11.6°C 84% 12.0 mph NNW19.3 kmh NNW 18.0 mph29.0 kmh 30.15 in1021.0 mb 0.00 in0.0 mm 0.00 in0.0 mm 0.00 in0.0 mm
06:48 AM 57.6°F14.2°C 52.9°F11.6°C 84% 12.0 mph NNW19.3 kmh NNW 18.0 mph29.0 kmh 30.15 in1021.0 mb 0.00 in0.0 mm 0.00 in0.0 mm 0.00 in0.0 mm
06:45 AM 57.6°F14.2°C 52.7°F11.5°C 84% 12.0 mph NNW19.3 kmh NNW 17.0 mph27.4 kmh 30.15 in1021.0 mb 0.00 in0.0 mm 0.00 in0.0 mm 0.00 in0.0 mm
06:42 AM 57.4°F14.1°C 52.5°F11.4°C 84% 12.0 mph N19.3 kmh N 16.0 mph25.7 kmh 30.15 in1021.0 mb 0.00 in0.0 mm 0.00 in0.0 mm 0.00 in0.0 mm
06:39 AM 57.2°F14.0°C 52.3°F11.3°C 84% 12.0 mph N19.3 kmh N 21.0 mph33.8 kmh 30.14 in1020.7 mb 0.00 in0.0 mm 0.00 in0.0 mm 0.00 in0.0 mm
06:36 AM 57.0°F13.9°C 52.2°F11.2°C 84% 12.0 mph N19.3 kmh N 21.0 mph33.8 kmh 30.14 in1020.7 mb 0.00 in0.0 mm 0.00 in0.0 mm 0.00 in0.0 mm
06:33 AM 56.8°F13.8°C 52.0°F11.1°C 84% 12.0 mph NNW19.3 kmh NNW 21.0 mph33.8 kmh 30.14 in1020.7 mb 0.00 in0.0 mm 0.00 in0.0 mm 0.00 in0.0 mm
06:30 AM 56.7°F13.7°C 52.0°F11.1°C 84% 12.0 mph NNW19.3 kmh NNW 17.0 mph27.4 kmh 30.14 in1020.7 mb 0.00 in0.0 mm 0.00 in0.0 mm 0.00 in0.0 mm
06:27 AM 56.7°F13.7°C 52.0°F11.1°C 84% 12.0 mph NNW19.3 kmh NNW 17.0 mph27.4 kmh 30.15 in1021.0 mb 0.00 in0.0 mm 0.00 in0.0 mm 0.00 in0.0 mm
06:24 AM 56.7°F13.7°C 51.8°F11.0°C 84% 12.0 mph NNW19.3 kmh NNW 17.0 mph27.4 kmh 30.14 in1020.7 mb 0.00 in0.0 mm 0.00 in0.0 mm 0.00 in0.0 mm
06:21 AM 56.7°F13.7°C 51.8°F11.0°C 84% 12.0 mph N19.3 kmh N 17.0 mph27.4 kmh 30.15 in1021.0 mb 0.00 in0.0 mm 0.00 in0.0 mm 0.00 in0.0 mm
06:18 AM 56.7°F13.7°C 51.8°F11.0°C 84% 12.0 mph NNW19.3 kmh NNW 17.0 mph27.4 kmh 30.15 in1021.0 mb 0.00 in0.0 mm 0.00 in0.0 mm 0.00 in0.0 mm
06:15 AM 56.5°F13.6°C 51.8°F11.0°C 84% 12.0 mph N19.3 kmh N 16.0 mph25.7 kmh 30.15 in1021.0 mb 0.00 in0.0 mm 0.00 in0.0 mm 0.00 in0.0 mm
06:12 AM 56.7°F13.7°C 51.8°F11.0°C 84% 12.0 mph NNW19.3 kmh NNW 17.0 mph27.4 kmh 30.14 in1020.7 mb 0.00 in0.0 mm 0.00 in0.0 mm 0.00 in0.0 mm
06:09 AM 56.7°F13.7°C 51.8°F11.0°C 84% 12.0 mph NNW19.3 kmh NNW 17.0 mph27.4 kmh 30.14 in1020.7 mb 0.00 in0.0 mm 0.00 in0.0 mm 0.00 in0.0 mm
06:06 AM 56.7°F13.7°C 51.8°F11.0°C 84% 12.0 mph NNW19.3 kmh NNW 17.0 mph27.4 kmh 30.14 in1020.7 mb 0.00 in0.0 mm 0.00 in0.0 mm 0.00 in0.0 mm
06:03 AM 56.7°F13.7°C 52.0°F11.1°C 84% 12.0 mph NNW19.3 kmh NNW 17.0 mph27.4 kmh 30.14 in1020.7 mb 0.00 in0.0 mm 0.00 in0.0 mm 0.00 in0.0 mm
06:00 AM 56.7°F13.7°C 52.0°F11.1°C 84% 12.0 mph N19.3 kmh N 17.0 mph27.4 kmh 30.14 in1020.7 mb 0.00 in0.0 mm 0.00 in0.0 mm 0.00 in0.0 mm
05:57 AM 56.7°F13.7°C 52.0°F11.1°C 84% 12.0 mph N19.3 kmh N 17.0 mph27.4 kmh 30.14 in1020.7 mb 0.00 in0.0 mm 0.00 in0.0 mm 0.00 in0.0 mm
05:54 AM 56.7°F13.7°C 52.0°F11.1°C 84% 13.0 mph N20.9 kmh N 18.0 mph29.0 kmh 30.14 in1020.7 mb 0.00 in0.0 mm 0.00 in0.0 mm 0.00 in0.0 mm
05:51 AM 56.7°F13.7°C 51.8°F11.0°C 84% 13.0 mph N20.9 kmh N 18.0 mph29.0 kmh 30.14 in1020.7 mb 0.00 in0.0 mm 0.00 in0.0 mm 0.00 in0.0 mm
05:48 AM 56.5°F13.6°C 52.0°F11.1°C 85% 12.0 mph N19.3 kmh N 18.0 mph29.0 kmh 30.14 in1020.7 mb 0.00 in0.0 mm 0.00 in0.0 mm 0.00 in0.0 mm
05:45 AM 56.5°F13.6°C 52.0°F11.1°C 85% 13.0 mph N20.9 kmh N 18.0 mph29.0 kmh 30.14 in1020.7 mb 0.00 in0.0 mm 0.00 in0.0 mm 0.00 in0.0 mm
05:42 AM 56.5°F13.6°C 52.0°F11.1°C 85% 13.0 mph N20.9 kmh N 18.0 mph29.0 kmh 30.14 in1020.7 mb 0.00 in0.0 mm 0.00 in0.0 mm 0.00 in0.0 mm
05:39 AM 56.5°F13.6°C 52.0°F11.1°C 85% 12.0 mph N19.3 kmh N 18.0 mph29.0 kmh 30.14 in1020.7 mb 0.00 in0.0 mm 0.00 in0.0 mm 0.00 in0.0 mm
05:36 AM 56.3°F13.5°C 51.8°F11.0°C 85% 12.0 mph N19.3 kmh N 18.0 mph29.0 kmh 30.14 in1020.7 mb 0.00 in0.0 mm 0.00 in0.0 mm 0.00 in0.0 mm
05:33 AM 56.1°F13.4°C 52.0°F11.1°C 86% 11.0 mph N17.7 kmh N 18.0 mph29.0 kmh 30.14 in1020.7 mb 0.00 in0.0 mm 0.00 in0.0 mm 0.00 in0.0 mm
05:30 AM 56.1°F13.4°C 52.0°F11.1°C 86% 12.0 mph N19.3 kmh N 18.0 mph29.0 kmh 30.14 in1020.7 mb 0.00 in0.0 mm 0.00 in0.0 mm 0.00 in0.0 mm
05:27 AM 55.9°F13.3°C 52.2°F11.2°C 87% 11.0 mph N17.7 kmh N 16.0 mph25.7 kmh 30.14 in1020.7 mb 0.00 in0.0 mm 0.00 in0.0 mm 0.00 in0.0 mm
05:24 AM 55.8°F13.2°C 52.0°F11.1°C 87% 12.0 mph N19.3 kmh N 16.0 mph25.7 kmh 30.14 in1020.7 mb 0.00 in0.0 mm 0.00 in0.0 mm 0.00 in0.0 mm
05:21 AM 55.8°F13.2°C 52.2°F11.2°C 88% 11.0 mph N17.7 kmh N 16.0 mph25.7 kmh 30.14 in1020.7 mb 0.00 in0.0 mm 0.00 in0.0 mm 0.00 in0.0 mm
05:18 AM 55.6°F13.1°C 52.2°F11.2°C 88% 11.0 mph N17.7 kmh N 16.0 mph25.7 kmh 30.14 in1020.7 mb 0.00 in0.0 mm 0.00 in0.0 mm 0.00 in0.0 mm
05:15 AM 55.6°F13.1°C 52.2°F11.2°C 88% 11.0 mph NNW17.7 kmh NNW 16.0 mph25.7 kmh 30.14 in1020.7 mb 0.00 in0.0 mm 0.00 in0.0 mm 0.00 in0.0 mm
05:12 AM 55.6°F13.1°C 52.0°F11.1°C 88% 11.0 mph NNW17.7 kmh NNW 16.0 mph25.7 kmh 30.14 in1020.7 mb 0.00 in0.0 mm 0.00 in0.0 mm 0.00 in0.0 mm
05:09 AM 55.6°F13.1°C 52.0°F11.1°C 88% 11.0 mph NNW17.7 kmh NNW 16.0 mph25.7 kmh 30.14 in1020.7 mb 0.00 in0.0 mm 0.00 in0.0 mm 0.00 in0.0 mm
05:06 AM 55.6°F13.1°C 52.3°F11.3°C 89% 11.0 mph NNW17.7 kmh NNW 15.0 mph24.1 kmh 30.14 in1020.7 mb 0.00 in0.0 mm 0.00 in0.0 mm 0.00 in0.0 mm
05:03 AM 55.6°F13.1°C 52.3°F11.3°C 89% 10.0 mph NNW16.1 kmh NNW 13.0 mph20.9 kmh 30.14 in1020.7 mb 0.00 in0.0 mm 0.00 in0.0 mm 0.00 in0.0 mm
05:00 AM 55.6°F13.1°C 52.3°F11.3°C 89% 10.0 mph NNW16.1 kmh NNW 14.0 mph22.5 kmh 30.14 in1020.7 mb 0.00 in0.0 mm 0.00 in0.0 mm 0.00 in0.0 mm
04:57 AM 55.6°F13.1°C 52.3°F11.3°C 89% 10.0 mph NNW16.1 kmh NNW 14.0 mph22.5 kmh 30.14 in1020.7 mb 0.00 in0.0 mm 0.00 in0.0 mm 0.00 in0.0 mm
04:54 AM 55.6°F13.1°C 52.3°F11.3°C 89% 10.0 mph NNW16.1 kmh NNW 15.0 mph24.1 kmh 30.14 in1020.7 mb 0.00 in0.0 mm 0.00 in0.0 mm 0.00 in0.0 mm
04:51 AM 55.6°F13.1°C 52.3°F11.3°C 89% 11.0 mph NNW17.7 kmh NNW 15.0 mph24.1 kmh 30.14 in1020.7 mb 0.00 in0.0 mm 0.00 in0.0 mm 0.00 in0.0 mm
04:48 AM 55.6°F13.1°C 52.3°F11.3°C 89% 12.0 mph NNW19.3 kmh NNW 15.0 mph24.1 kmh 30.13 in1020.3 mb 0.00 in0.0 mm 0.00 in0.0 mm 0.00 in0.0 mm
04:45 AM 55.6°F13.1°C 52.3°F11.3°C 89% 12.0 mph NNW19.3 kmh NNW 17.0 mph27.4 kmh 30.13 in1020.3 mb 0.00 in0.0 mm 0.00 in0.0 mm 0.00 in0.0 mm
04:42 AM 55.6°F13.1°C 52.3°F11.3°C 89% 13.0 mph NNW20.9 kmh NNW 17.0 mph27.4 kmh 30.13 in1020.3 mb 0.00 in0.0 mm 0.00 in0.0 mm 0.00 in0.0 mm
04:39 AM 55.6°F13.1°C 52.7°F11.5°C 90% 13.0 mph NNW20.9 kmh NNW 17.0 mph27.4 kmh 30.13 in1020.3 mb 0.00 in0.0 mm 0.00 in0.0 mm 0.00 in0.0 mm
04:36 AM 55.4°F13.0°C 52.5°F11.4°C 90% 13.0 mph NNW20.9 kmh NNW 18.0 mph29.0 kmh 30.13 in1020.3 mb 0.00 in0.0 mm 0.00 in0.0 mm 0.00 in0.0 mm
04:33 AM 55.4°F13.0°C 52.5°F11.4°C 90% 13.0 mph NNW20.9 kmh NNW 19.0 mph30.6 kmh 30.13 in1020.3 mb 0.00 in0.0 mm 0.00 in0.0 mm 0.00 in0.0 mm
04:30 AM 55.4°F13.0°C 52.5°F11.4°C 90% 13.0 mph NNW20.9 kmh NNW 19.0 mph30.6 kmh 30.13 in1020.3 mb 0.00 in0.0 mm 0.00 in0.0 mm 0.00 in0.0 mm
04:27 AM 55.4°F13.0°C 52.5°F11.4°C 90% 13.0 mph NNW20.9 kmh NNW 19.0 mph30.6 kmh 30.13 in1020.3 mb 0.00 in0.0 mm 0.00 in0.0 mm 0.00 in0.0 mm
04:24 AM 55.2°F12.9°C 52.3°F11.3°C 90% 12.0 mph NNW19.3 kmh NNW 18.0 mph29.0 kmh 30.13 in1020.3 mb 0.00 in0.0 mm 0.00 in0.0 mm 0.00 in0.0 mm
04:21 AM 55.2°F12.9°C 52.3°F11.3°C 90% 11.0 mph NNW17.7 kmh NNW 18.0 mph29.0 kmh 30.13 in1020.3 mb 0.00 in0.0 mm 0.00 in0.0 mm 0.00 in0.0 mm
04:18 AM 55.2°F12.9°C 52.3°F11.3°C 90% 11.0 mph NNW17.7 kmh NNW 16.0 mph25.7 kmh 30.13 in1020.3 mb 0.00 in0.0 mm 0.00 in0.0 mm 0.00 in0.0 mm
04:15 AM 55.4°F13.0°C 52.5°F11.4°C 90% 11.0 mph NNW17.7 kmh NNW 16.0 mph25.7 kmh 30.13 in1020.3 mb 0.00 in0.0 mm 0.00 in0.0 mm 0.00 in0.0 mm
04:12 AM 55.4°F13.0°C 52.5°F11.4°C 90% 11.0 mph NNW17.7 kmh NNW 16.0 mph25.7 kmh 30.13 in1020.3 mb 0.00 in0.0 mm 0.00 in0.0 mm 0.00 in0.0 mm
04:09 AM 55.4°F13.0°C 52.5°F11.4°C 90% 11.0 mph NNW17.7 kmh NNW 16.0 mph25.7 kmh 30.13 in1020.3 mb 0.00 in0.0 mm 0.00 in0.0 mm 0.00 in0.0 mm
04:06 AM 55.6°F13.1°C 52.7°F11.5°C 90% 12.0 mph NNW19.3 kmh NNW 17.0 mph27.4 kmh 30.13 in1020.3 mb 0.00 in0.0 mm 0.00 in0.0 mm 0.00 in0.0 mm
04:03 AM 55.6°F13.1°C 52.7°F11.5°C 90% 12.0 mph NNW19.3 kmh NNW 17.0 mph27.4 kmh 30.13 in1020.3 mb 0.00 in0.0 mm 0.00 in0.0 mm 0.00 in0.0 mm
04:00 AM 55.6°F13.1°C 52.7°F11.5°C 90% 12.0 mph NNW19.3 kmh NNW 19.0 mph30.6 kmh 30.13 in1020.3 mb 0.00 in0.0 mm 0.00 in0.0 mm 0.00 in0.0 mm
03:57 AM 55.6°F13.1°C 52.7°F11.5°C 90% 12.0 mph NNW19.3 kmh NNW 19.0 mph30.6 kmh 30.13 in1020.3 mb 0.00 in0.0 mm 0.00 in0.0 mm 0.00 in0.0 mm
03:54 AM 55.6°F13.1°C 52.7°F11.5°C 90% 11.0 mph NNW17.7 kmh NNW 19.0 mph30.6 kmh 30.13 in1020.3 mb 0.00 in0.0 mm 0.00 in0.0 mm 0.00 in0.0 mm
03:51 AM 55.6°F13.1°C 52.7°F11.5°C 90% 11.0 mph NNW17.7 kmh NNW 19.0 mph30.6 kmh 30.13 in1020.3 mb 0.00 in0.0 mm 0.00 in0.0 mm 0.00 in0.0 mm
03:48 AM 55.6°F13.1°C 52.7°F11.5°C 90% 10.0 mph NNW16.1 kmh NNW 16.0 mph25.7 kmh 30.13 in1020.3 mb 0.00 in0.0 mm 0.00 in0.0 mm 0.00 in0.0 mm
03:45 AM 55.6°F13.1°C 52.7°F11.5°C 90% 10.0 mph NNW16.1 kmh NNW 16.0 mph25.7 kmh 30.13 in1020.3 mb 0.00 in0.0 mm 0.00 in0.0 mm 0.00 in0.0 mm
03:42 AM 55.6°F13.1°C 52.7°F11.5°C 90% 10.0 mph NNW16.1 kmh NNW 16.0 mph25.7 kmh 30.13 in1020.3 mb 0.00 in0.0 mm 0.00 in0.0 mm 0.00 in0.0 mm
03:39 AM 55.6°F13.1°C 52.7°F11.5°C 90% 10.0 mph NNW16.1 kmh NNW 15.0 mph24.1 kmh 30.13 in1020.3 mb 0.00 in0.0 mm 0.00 in0.0 mm 0.00 in0.0 mm
03:36 AM 55.6°F13.1°C 52.7°F11.5°C 90% 9.0 mph NNW14.5 kmh NNW 15.0 mph24.1 kmh 30.13 in1020.3 mb 0.00 in0.0 mm 0.00 in0.0 mm 0.00 in0.0 mm
03:33 AM 55.8°F13.2°C 52.9°F11.6°C 90% 9.0 mph NNW14.5 kmh NNW 15.0 mph24.1 kmh 30.13 in1020.3 mb 0.00 in0.0 mm 0.00 in0.0 mm 0.00 in0.0 mm
03:30 AM 55.8°F13.2°C 52.9°F11.6°C 90% 8.0 mph NNW12.9 kmh NNW 13.0 mph20.9 kmh 30.13 in1020.3 mb 0.00 in0.0 mm 0.00 in0.0 mm 0.00 in0.0 mm
03:27 AM 55.8°F13.2°C 52.9°F11.6°C 90% 8.0 mph NNW12.9 kmh NNW 14.0 mph22.5 kmh 30.14 in1020.7 mb 0.00 in0.0 mm 0.00 in0.0 mm 0.00 in0.0 mm
03:24 AM 55.8°F13.2°C 52.9°F11.6°C 90% 8.0 mph NNW12.9 kmh NNW 14.0 mph22.5 kmh 30.14 in1020.7 mb 0.00 in0.0 mm 0.00 in0.0 mm 0.00 in0.0 mm
03:21 AM 55.8°F13.2°C 52.9°F11.6°C 90% 8.0 mph NNW12.9 kmh NNW 14.0 mph22.5 kmh 30.14 in1020.7 mb 0.00 in0.0 mm 0.00 in0.0 mm 0.00 in0.0 mm
03:18 AM 55.8°F13.2°C 52.9°F11.6°C 90% 9.0 mph NNW14.5 kmh NNW 17.0 mph27.4 kmh 30.14 in1020.7 mb 0.00 in0.0 mm 0.00 in0.0 mm 0.00 in0.0 mm
03:15 AM 55.8°F13.2°C 52.9°F11.6°C 90% 10.0 mph NNW16.1 kmh NNW 17.0 mph27.4 kmh 30.14 in1020.7 mb 0.00 in0.0 mm 0.00 in0.0 mm 0.00 in0.0 mm
03:12 AM 55.8°F13.2°C 52.5°F11.4°C 89% 10.0 mph NNW16.1 kmh NNW 17.0 mph27.4 kmh 30.14 in1020.7 mb 0.00 in0.0 mm 0.00 in0.0 mm 0.00 in0.0 mm
03:09 AM 55.8°F13.2°C 52.5°F11.4°C 89% 9.0 mph NNW14.5 kmh NNW 17.0 mph27.4 kmh 30.14 in1020.7 mb 0.00 in0.0 mm 0.00 in0.0 mm 0.00 in0.0 mm
03:06 AM 55.8°F13.2°C 52.5°F11.4°C 89% 8.0 mph NNW12.9 kmh NNW 13.0 mph20.9 kmh 30.14 in1020.7 mb 0.00 in0.0 mm 0.00 in0.0 mm 0.00 in0.0 mm
03:03 AM 55.8°F13.2°C 52.5°F11.4°C 89% 8.0 mph NNW12.9 kmh NNW 13.0 mph20.9 kmh 30.14 in1020.7 mb 0.00 in0.0 mm 0.00 in0.0 mm 0.00 in0.0 mm
03:00 AM 55.8°F13.2°C 52.9°F11.6°C 90% 8.0 mph NNW12.9 kmh NNW 14.0 mph22.5 kmh 30.14 in1020.7 mb 0.00 in0.0 mm 0.00 in0.0 mm 0.00 in0.0 mm
02:57 AM 55.8°F13.2°C 52.9°F11.6°C 90% 9.0 mph NNW14.5 kmh NNW 14.0 mph22.5 kmh 30.14 in1020.7 mb 0.00 in0.0 mm 0.00 in0.0 mm 0.00 in0.0 mm
02:54 AM 55.8°F13.2°C 52.9°F11.6°C 90% 9.0 mph NNW14.5 kmh NNW 14.0 mph22.5 kmh 30.14 in1020.7 mb 0.00 in0.0 mm 0.00 in0.0 mm 0.00 in0.0 mm
02:51 AM 55.8°F13.2°C 52.9°F11.6°C 90% 9.0 mph NNW14.5 kmh NNW 14.0 mph22.5 kmh 30.14 in1020.7 mb 0.00 in0.0 mm 0.00 in0.0 mm 0.00 in0.0 mm
02:48 AM 55.6°F13.1°C 52.7°F11.5°C 90% 9.0 mph NNW14.5 kmh NNW 13.0 mph20.9 kmh 30.14 in1020.7 mb 0.00 in0.0 mm 0.00 in0.0 mm 0.00 in0.0 mm
02:45 AM 55.6°F13.1°C 52.7°F11.5°C 90% 8.0 mph NNW12.9 kmh NNW 13.0 mph20.9 kmh 30.14 in1020.7 mb 0.00 in0.0 mm 0.00 in0.0 mm 0.00 in0.0 mm
02:42 AM 55.6°F13.1°C 52.7°F11.5°C 90% 7.0 mph NNW11.3 kmh NNW 11.0 mph17.7 kmh 30.14 in1020.7 mb 0.00 in0.0 mm 0.00 in0.0 mm 0.00 in0.0 mm
02:39 AM 55.6°F13.1°C 52.7°F11.5°C 90% 7.0 mph NNW11.3 kmh NNW 12.0 mph19.3 kmh 30.14 in1020.7 mb 0.00 in0.0 mm 0.00 in0.0 mm 0.00 in0.0 mm
02:36 AM 55.6°F13.1°C 52.7°F11.5°C 90% 7.0 mph NNW11.3 kmh NNW 12.0 mph19.3 kmh 30.14 in1020.7 mb 0.00 in0.0 mm 0.00 in0.0 mm 0.00 in0.0 mm
02:33 AM 55.6°F13.1°C 52.7°F11.5°C 90% 7.0 mph NNW11.3 kmh NNW 12.0 mph19.3 kmh 30.14 in1020.7 mb 0.00 in0.0 mm 0.00 in0.0 mm 0.00 in0.0 mm
02:30 AM 55.6°F13.1°C 52.7°F11.5°C 90% 6.0 mph NNW9.7 kmh NNW 10.0 mph16.1 kmh 30.14 in1020.7 mb 0.00 in0.0 mm 0.00 in0.0 mm 0.00 in0.0 mm
02:27 AM 55.6°F13.1°C 52.7°F11.5°C 90% 6.0 mph NNW9.7 kmh NNW 10.0 mph16.1 kmh 30.14 in1020.7 mb 0.00 in0.0 mm 0.00 in0.0 mm 0.00 in0.0 mm
02:24 AM 55.6°F13.1°C 52.7°F11.5°C 90% 6.0 mph NNW9.7 kmh NNW 9.0 mph14.5 kmh 30.14 in1020.7 mb 0.00 in0.0 mm 0.00 in0.0 mm 0.00 in0.0 mm
02:21 AM 55.6°F13.1°C 52.7°F11.5°C 90% 6.0 mph NNW9.7 kmh NNW 9.0 mph14.5 kmh 30.14 in1020.7 mb 0.00 in0.0 mm 0.00 in0.0 mm 0.00 in0.0 mm
02:18 AM 55.6°F13.1°C 52.7°F11.5°C 90% 5.0 mph NNW8.0 kmh NNW 9.0 mph14.5 kmh 30.14 in1020.7 mb 0.00 in0.0 mm 0.00 in0.0 mm 0.00 in0.0 mm
02:15 AM 55.6°F13.1°C 52.7°F11.5°C 90% 6.0 mph NNW9.7 kmh NNW 10.0 mph16.1 kmh 30.14 in1020.7 mb 0.00 in0.0 mm 0.00 in0.0 mm 0.00 in0.0 mm
02:12 AM 55.6°F13.1°C 52.7°F11.5°C 90% 6.0 mph NNW9.7 kmh NNW 10.0 mph16.1 kmh 30.14 in1020.7 mb 0.00 in0.0 mm 0.00 in0.0 mm 0.00 in0.0 mm
02:09 AM 55.6°F13.1°C 52.7°F11.5°C 90% 7.0 mph NNW11.3 kmh NNW 11.0 mph17.7 kmh 30.14 in1020.7 mb 0.00 in0.0 mm 0.00 in0.0 mm 0.00 in0.0 mm
02:06 AM 55.6°F13.1°C 52.7°F11.5°C 90% 7.0 mph NNW11.3 kmh NNW 11.0 mph17.7 kmh 30.14 in1020.7 mb 0.00 in0.0 mm 0.00 in0.0 mm 0.00 in0.0 mm
02:03 AM 55.6°F13.1°C 52.7°F11.5°C 90% 8.0 mph NNW12.9 kmh NNW 12.0 mph19.3 kmh 30.13 in1020.3 mb 0.00 in0.0 mm 0.00 in0.0 mm 0.00 in0.0 mm
02:00 AM 55.6°F13.1°C 52.3°F11.3°C 89% 9.0 mph NNW14.5 kmh NNW 13.0 mph20.9 kmh 30.13 in1020.3 mb 0.00 in0.0 mm 0.00 in0.0 mm 0.00 in0.0 mm
01:57 AM 55.6°F13.1°C 52.3°F11.3°C 89% 9.0 mph NNW14.5 kmh NNW 13.0 mph20.9 kmh 30.13 in1020.3 mb 0.00 in0.0 mm 0.00 in0.0 mm 0.00 in0.0 mm
01:54 AM 55.4°F13.0°C 52.2°F11.2°C 89% 9.0 mph NNW14.5 kmh NNW 13.0 mph20.9 kmh 30.13 in1020.3 mb 0.00 in0.0 mm 0.00 in0.0 mm 0.00 in0.0 mm
01:51 AM 55.4°F13.0°C 52.2°F11.2°C 89% 10.0 mph NNW16.1 kmh NNW 12.0 mph19.3 kmh 30.13 in1020.3 mb 0.00 in0.0 mm 0.00 in0.0 mm 0.00 in0.0 mm
01:48 AM 55.4°F13.0°C 52.2°F11.2°C 89% 10.0 mph NNW16.1 kmh NNW 12.0 mph19.3 kmh 30.13 in1020.3 mb 0.00 in0.0 mm 0.00 in0.0 mm 0.00 in0.0 mm
01:45 AM 55.4°F13.0°C 52.2°F11.2°C 89% 10.0 mph NNW16.1 kmh NNW 12.0 mph19.3 kmh 30.13 in1020.3 mb 0.00 in0.0 mm 0.00 in0.0 mm 0.00 in0.0 mm
01:42 AM 55.4°F13.0°C 52.2°F11.2°C 89% 10.0 mph NNW16.1 kmh NNW 13.0 mph20.9 kmh 30.13 in1020.3 mb 0.00 in0.0 mm 0.00 in0.0 mm 0.00 in0.0 mm
01:39 AM 55.4°F13.0°C 52.2°F11.2°C 89% 10.0 mph NNW16.1 kmh NNW 13.0 mph20.9 kmh 30.14 in1020.7 mb 0.00 in0.0 mm 0.00 in0.0 mm 0.00 in0.0 mm
01:36 AM 55.4°F13.0°C 52.2°F11.2°C 89% 10.0 mph NNW16.1 kmh NNW 14.0 mph22.5 kmh 30.14 in1020.7 mb 0.00 in0.0 mm 0.00 in0.0 mm 0.00 in0.0 mm
01:33 AM 55.6°F13.1°C 52.3°F11.3°C 89% 10.0 mph NNW16.1 kmh NNW 14.0 mph22.5 kmh 30.13 in1020.3 mb 0.00 in0.0 mm 0.00 in0.0 mm 0.00 in0.0 mm
01:30 AM 55.6°F13.1°C 52.3°F11.3°C 89% 10.0 mph NNW16.1 kmh NNW 14.0 mph22.5 kmh 30.14 in1020.7 mb 0.00 in0.0 mm 0.00 in0.0 mm 0.00 in0.0 mm
01:27 AM 55.6°F13.1°C 52.3°F11.3°C 89% 10.0 mph NNW16.1 kmh NNW 14.0 mph22.5 kmh 30.14 in1020.7 mb 0.00 in0.0 mm 0.00 in0.0 mm 0.00 in0.0 mm
01:24 AM 55.6°F13.1°C 52.3°F11.3°C 89% 10.0 mph NNW16.1 kmh NNW 13.0 mph20.9 kmh 30.14 in1020.7 mb 0.00 in0.0 mm 0.00 in0.0 mm 0.00 in0.0 mm
01:21 AM 55.8°F13.2°C 52.2°F11.2°C 88% 9.0 mph NNW14.5 kmh NNW 13.0 mph20.9 kmh 30.14 in1020.7 mb 0.00 in0.0 mm 0.00 in0.0 mm 0.00 in0.0 mm
01:18 AM 55.8°F13.2°C 52.2°F11.2°C 88% 9.0 mph NNW14.5 kmh NNW 13.0 mph20.9 kmh 30.14 in1020.7 mb 0.00 in0.0 mm 0.00 in0.0 mm 0.00 in0.0 mm
01:15 AM 55.8°F13.2°C 52.2°F11.2°C 88% 9.0 mph N14.5 kmh N 13.0 mph20.9 kmh 30.14 in1020.7 mb 0.00 in0.0 mm 0.00 in0.0 mm 0.00 in0.0 mm
01:12 AM 55.8°F13.2°C 52.5°F11.4°C 89% 9.0 mph N14.5 kmh N 12.0 mph19.3 kmh 30.14 in1020.7 mb 0.00 in0.0 mm 0.00 in0.0 mm 0.00 in0.0 mm
01:09 AM 55.8°F13.2°C 52.5°F11.4°C 89% 9.0 mph N14.5 kmh N 12.0 mph19.3 kmh 30.14 in1020.7 mb 0.00 in0.0 mm 0.00 in0.0 mm 0.00 in0.0 mm
01:06 AM 55.6°F13.1°C 52.3°F11.3°C 89% 9.0 mph N14.5 kmh N 13.0 mph20.9 kmh 30.14 in1020.7 mb 0.00 in0.0 mm 0.00 in0.0 mm 0.00 in0.0 mm
01:03 AM 55.6°F13.1°C 52.3°F11.3°C 89% 9.0 mph N14.5 kmh N 13.0 mph20.9 kmh 30.14 in1020.7 mb 0.00 in0.0 mm 0.00 in0.0 mm 0.00 in0.0 mm
01:00 AM 55.4°F13.0°C 52.2°F11.2°C 89% 10.0 mph NNW16.1 kmh NNW 13.0 mph20.9 kmh 30.14 in1020.7 mb 0.00 in0.0 mm 0.00 in0.0 mm 0.00 in0.0 mm
12:57 AM 55.2°F12.9°C 52.2°F11.2°C 89% 9.0 mph NNW14.5 kmh NNW 12.0 mph19.3 kmh 30.14 in1020.7 mb 0.00 in0.0 mm 0.00 in0.0 mm 0.00 in0.0 mm
12:54 AM 55.2°F12.9°C 52.2°F11.2°C 89% 9.0 mph NNW14.5 kmh NNW 12.0 mph19.3 kmh 30.14 in1020.7 mb 0.00 in0.0 mm 0.00 in0.0 mm 0.00 in0.0 mm
12:51 AM 55.2°F12.9°C 52.0°F11.1°C 89% 9.0 mph NNW14.5 kmh NNW 13.0 mph20.9 kmh 30.14 in1020.7 mb 0.00 in0.0 mm 0.00 in0.0 mm 0.00 in0.0 mm
12:48 AM 55.2°F12.9°C 52.0°F11.1°C 89% 9.0 mph NNW14.5 kmh NNW 13.0 mph20.9 kmh 30.14 in1020.7 mb 0.00 in0.0 mm 0.00 in0.0 mm 0.00 in0.0 mm
12:45 AM 55.2°F12.9°C 52.0°F11.1°C 89% 9.0 mph NNW14.5 kmh NNW 13.0 mph20.9 kmh 30.14 in1020.7 mb 0.00 in0.0 mm 0.00 in0.0 mm 0.00 in0.0 mm
12:42 AM 55.0°F12.8°C 52.0°F11.1°C 89% 8.0 mph NNW12.9 kmh NNW 12.0 mph19.3 kmh 30.14 in1020.7 mb 0.00 in0.0 mm 0.00 in0.0 mm 0.00 in0.0 mm
12:39 AM 55.0°F12.8°C 52.0°F11.1°C 89% 8.0 mph NNW12.9 kmh NNW 12.0 mph19.3 kmh 30.14 in1020.7 mb 0.00 in0.0 mm 0.00 in0.0 mm 0.00 in0.0 mm
12:36 AM 55.0°F12.8°C 51.6°F10.9°C 88% 7.0 mph NNW11.3 kmh NNW 11.0 mph17.7 kmh 30.14 in1020.7 mb 0.00 in0.0 mm 0.00 in0.0 mm 0.00 in0.0 mm
12:33 AM 55.2°F12.9°C 51.6°F10.9°C 88% 7.0 mph NNW11.3 kmh NNW 11.0 mph17.7 kmh 30.14 in1020.7 mb 0.00 in0.0 mm 0.00 in0.0 mm 0.00 in0.0 mm
12:30 AM 55.2°F12.9°C 51.6°F10.9°C 88% 7.0 mph NNW11.3 kmh NNW 10.0 mph16.1 kmh 30.14 in1020.7 mb 0.00 in0.0 mm 0.00 in0.0 mm 0.00 in0.0 mm
12:27 AM 55.2°F12.9°C 51.6°F10.9°C 88% 8.0 mph NNW12.9 kmh NNW 11.0 mph17.7 kmh 30.14 in1020.7 mb 0.00 in0.0 mm 0.00 in0.0 mm 0.00 in0.0 mm
12:24 AM 55.2°F12.9°C 51.6°F10.9°C 88% 8.0 mph NNW12.9 kmh NNW 11.0 mph17.7 kmh 30.14 in1020.7 mb 0.00 in0.0 mm 0.00 in0.0 mm 0.00 in0.0 mm
12:21 AM 55.2°F12.9°C 51.6°F10.9°C 88% 8.0 mph NNW12.9 kmh NNW 12.0 mph19.3 kmh 30.15 in1021.0 mb 0.00 in0.0 mm 0.00 in0.0 mm 0.00 in0.0 mm
12:18 AM 55.2°F12.9°C 51.8°F11.0°C 88% 9.0 mph NNW14.5 kmh NNW 12.0 mph19.3 kmh 30.14 in1020.7 mb 0.00 in0.0 mm 0.00 in0.0 mm 0.00 in0.0 mm
12:15 AM 55.2°F12.9°C 51.8°F11.0°C 88% 9.0 mph NNW14.5 kmh NNW 12.0 mph19.3 kmh 30.14 in1020.7 mb 0.00 in0.0 mm 0.00 in0.0 mm 0.00 in0.0 mm
12:12 AM 55.2°F12.9°C 51.8°F11.0°C 88% 9.0 mph NNW14.5 kmh NNW 12.0 mph19.3 kmh 30.14 in1020.7 mb 0.00 in0.0 mm 0.00 in0.0 mm 0.00 in0.0 mm
12:09 AM 55.2°F12.9°C 51.8°F11.0°C 88% 9.0 mph NNW14.5 kmh NNW 12.0 mph19.3 kmh 30.14 in1020.7 mb 0.00 in0.0 mm 0.00 in0.0 mm 0.00 in0.0 mm
12:06 AM 55.2°F12.9°C 51.6°F10.9°C 88% 9.0 mph NNW14.5 kmh NNW 13.0 mph20.9 kmh 30.14 in1020.7 mb 0.00 in0.0 mm 0.00 in0.0 mm 0.00 in0.0 mm
12:03 AM 55.2°F12.9°C 51.8°F11.0°C 88% 9.0 mph NNW14.5 kmh NNW 13.0 mph20.9 kmh 30.15 in1021.0 mb 0.00 in0.0 mm 0.00 in0.0 mm 0.00 in0.0 mm
12:00 AM 55.2°F12.9°C 51.8°F11.0°C 88% 8.0 mph NNW12.9 kmh NNW 13.0 mph20.9 kmh 30.14 in1020.7 mb 0.00 in0.0 mm 0.00 in0.0 mm 0.00 in0.0 mm